<- Previous Day | Today | Next Day ->

All Data for 22 May 2022

 

Time A - D Temp A - D Dew Point A - D Humidity A - D Pressure A - D Wind A - D Wind Dir Gust A - D Rain Rate A - D Rain Total
06:02 11.1 10.5 96 1016.7 0.0 S 0.0 0.0 0.0
06:03 11.1 10.5 96 1016.7 0.0 S 0.0 0.0 0.0
06:04 11.1 10.5 96 1016.8 0.0 S 0.0 0.0 0.0
06:05 11.1 10.5 96 1016.8 0.0 S 0.0 0.0 0.0
06:06 11.1 10.5 96 1016.7 0.0 S 0.0 0.0 0.0
06:07 11.1 10.5 96 1016.5 0.0 SE 0.0 0.0 0.0
06:08 11.1 10.5 96 1016.7 0.0 SE 0.0 0.0 0.0
06:09 11.1 10.5 96 1016.5 0.0 SE 0.0 0.0 0.0
06:10 11.1 10.5 96 1016.7 0.0 SE 0.0 0.0 0.0
06:11 11.1 10.5 96 1016.7 0.0 SE 0.0 0.0 0.0
06:01 11.1 10.5 96 1016.5 0.0 S 0.7 0.0 0.0
06:12 11.1 10.5 96 1016.7 0.7 SE 0.7 0.0 0.0
06:13 11.1 10.5 96 1016.9 0.7 SE 0.7 0.0 0.0
02:13 11.3 10.4 94 1018.4 0.7 SW 1.6 0.0 0.0
02:14 11.3 10.4 94 1018.5 1.6 S 1.6 0.0 0.0
02:15 11.3 10.4 94 1018.6 1.6 S 1.6 0.0 0.0
02:16 11.3 10.4 94 1018.5 1.6 S 1.6 0.0 0.0
02:17 11.3 10.4 94 1018.3 1.6 S 1.6 0.0 0.0
02:18 11.2 10.3 94 1018.4 0.7 S 1.6 0.0 0.0
02:19 11.2 10.3 94 1018.3 0.0 S 1.6 0.0 0.0
02:20 11.2 10.3 94 1018.3 1.6 S 1.6 0.0 0.0
04:11 10.3 9.4 94 1017.5 1.6 SW 1.6 0.0 0.0
04:12 10.3 9.4 94 1017.3 1.6 S 1.6 0.0 0.0
04:13 10.3 9.4 94 1017.4 1.6 SW 1.6 0.0 0.0
04:14 10.2 9.3 94 1017.3 1.6 SW 1.6 0.0 0.0
04:15 10.2 9.3 94 1017.3 1.6 SW 1.6 0.0 0.0
04:16 10.2 9.3 94 1017.3 1.6 SW 1.6 0.0 0.0
04:17 10.2 9.3 94 1017.3 1.6 SW 1.6 0.0 0.0
04:18 10.2 9.3 94 1017.3 1.6 S 1.6 0.0 0.0
04:19 10.2 9.3 94 1017.1 1.6 SW 1.6 0.0 0.0
04:20 10.2 9.3 94 1017.2 1.6 SW 1.6 0.0 0.0
05:50 11.2 10.6 96 1016.8 1.6 S 1.6 0.0 0.0
05:51 11.2 10.6 96 1016.9 0.7 S 1.6 0.0 0.0
05:52 11.2 10.6 96 1016.7 0.0 S 1.6 0.0 0.0
05:53 11.2 10.6 96 1016.6 0.0 S 1.6 0.0 0.0
05:54 11.2 10.6 96 1016.7 0.0 S 1.6 0.0 0.0
05:55 11.2 10.6 96 1016.7 0.0 S 1.6 0.0 0.0
05:56 11.2 10.6 96 1016.7 0.0 S 1.6 0.0 0.0
05:57 11.2 10.6 96 1016.7 0.0 S 1.6 0.0 0.0
05:58 11.2 10.6 96 1016.7 0.0 S 1.6 0.0 0.0
05:59 11.2 10.6 96 1016.5 0.0 S 1.6 0.0 0.0
06:00 11.1 10.5 96 1016.7 0.0 S 1.6 0.0 0.0
06:14 11.1 10.5 96 1016.9 1.6 SE 1.6 0.0 0.0
06:15 11.1 10.5 96 1016.6 1.6 SE 1.6 0.0 0.0
06:16 11.1 10.5 96 1016.7 1.6 SE 1.6 0.0 0.0
06:17 11.1 10.5 96 1016.7 1.6 S 1.6 0.0 0.0
06:18 11.1 10.5 96 1016.8 1.6 SSE 1.6 0.0 0.0
00:22 11.6 10.3 92 1019.8 1.6 SW 2.2 0.0 0.0
00:23 11.5 10.2 92 1019.8 1.6 WSW 2.2 0.0 0.0
00:24 11.5 10.2 92 1019.6 2.2 SW 2.2 0.0 0.0
00:25 11.5 10.2 92 1019.7 2.2 S 2.2 0.0 0.0
00:26 11.5 10.2 92 1020.0 2.2 S 2.2 0.0 0.0
00:27 11.5 10.2 92 1019.6 2.2 S 2.2 0.0 0.0
00:28 11.5 10.2 92 1019.9 2.2 S 2.2 0.0 0.0
00:29 11.5 10.2 92 1019.7 2.2 S 2.2 0.0 0.0
00:30 11.4 10.1 92 1019.8 2.2 S 2.2 0.0 0.0
00:31 11.4 10.1 92 1019.8 2.2 S 2.2 0.0 0.0
00:32 11.4 10.1 92 1019.7 2.2 S 2.2 0.0 0.0
00:33 11.4 10.1 92 1019.9 2.2 S 2.2 0.0 0.0
00:34 11.4 10.1 92 1019.7 2.2 S 2.2 0.0 0.0
01:54 11.4 10.3 93 1019.0 2.2 S 2.2 0.0 0.0
01:55 11.4 10.3 93 1019.1 2.2 S 2.2 0.0 0.0
01:56 11.4 10.3 93 1019.2 2.2 S 2.2 0.0 0.0
01:57 11.4 10.3 93 1018.9 1.6 S 2.2 0.0 0.0
01:58 11.4 10.3 93 1018.7 1.6 S 2.2 0.0 0.0
01:59 11.4 10.5 94 1019.1 1.6 S 2.2 0.0 0.0
02:00 11.4 10.5 94 1018.7 1.6 SW 2.2 0.0 0.0
02:01 11.4 10.5 94 1018.9 1.6 SW 2.2 0.0 0.0
02:02 11.4 10.5 94 1019.0 2.2 SW 2.2 0.0 0.0
02:03 11.4 10.5 94 1019.1 2.2 SW 2.2 0.0 0.0
02:04 11.4 10.5 94 1018.8 1.6 S 2.2 0.0 0.0
02:05 11.4 10.5 94 1018.9 1.6 S 2.2 0.0 0.0
02:06 11.4 10.5 94 1018.8 0.7 S 2.2 0.0 0.0
02:07 11.4 10.5 94 1018.8 0.7 S 2.2 0.0 0.0
02:08 11.4 10.5 94 1018.6 0.7 S 2.2 0.0 0.0
02:09 11.4 10.5 94 1018.8 1.6 S 2.2 0.0 0.0
02:10 11.4 10.5 94 1018.5 1.6 SW 2.2 0.0 0.0
02:11 11.4 10.5 94 1018.5 1.6 SW 2.2 0.0 0.0
02:12 11.3 10.4 94 1018.7 0.7 SW 2.2 0.0 0.0
02:21 11.2 10.3 94 1018.5 2.2 S 2.2 0.0 0.0
02:22 11.2 10.3 94 1018.5 2.2 S 2.2 0.0 0.0
02:23 11.2 10.3 94 1018.3 2.2 S 2.2 0.0 0.0
02:43 11.0 10.1 94 1017.7 2.2 SW 2.2 0.0 0.0
02:44 10.9 10.0 94 1017.8 1.6 SW 2.2 0.0 0.0
02:45 10.9 10.0 94 1017.8 1.6 S 2.2 0.0 0.0
02:46 10.9 10.0 94 1017.8 1.6 S 2.2 0.0 0.0
02:47 10.9 10.0 94 1017.8 2.2 S 2.2 0.0 0.0
02:48 10.9 10.0 94 1017.8 1.6 S 2.2 0.0 0.0
02:49 10.9 10.0 94 1017.9 2.2 S 2.2 0.0 0.0
02:50 10.9 10.0 94 1017.6 2.2 S 2.2 0.0 0.0
02:51 10.9 10.0 94 1017.8 1.6 S 2.2 0.0 0.0
02:52 10.8 9.7 93 1017.7 1.6 SW 2.2 0.0 0.0
02:53 10.8 9.7 93 1017.6 1.6 SW 2.2 0.0 0.0
02:54 10.8 9.7 93 1017.6 1.6 SW 2.2 0.0 0.0
02:55 10.8 9.7 93 1017.9 1.6 SW 2.2 0.0 0.0
02:56 10.8 9.7 93 1017.8 1.6 SW 2.2 0.0 0.0
02:57 10.8 9.7 93 1017.9 1.6 S 2.2 0.0 0.0
02:58 10.8 9.7 93 1017.7 1.6 S 2.2 0.0 0.0
02:59 10.8 9.7 93 1017.8 1.6 S 2.2 0.0 0.0
03:00 10.7 9.6 93 1017.7 1.6 S 2.2 0.0 0.0
03:01 10.7 9.6 93 1017.6 1.6 S 2.2 0.0 0.0
03:02 10.7 9.6 93 1017.8 1.6 S 2.2 0.0 0.0
03:03 10.7 9.6 93 1017.7 1.6 S 2.2 0.0 0.0
03:04 10.7 9.6 93 1017.9 1.6 S 2.2 0.0 0.0
03:05 10.7 9.6 93 1017.7 1.6 S 2.2 0.0 0.0
03:06 10.7 9.6 93 1017.6 2.2 S 2.2 0.0 0.0
03:07 10.7 9.6 93 1017.6 2.2 S 2.2 0.0 0.0
03:08 10.7 9.6 93 1017.7 2.2 S 2.2 0.0 0.0
03:09 10.7 9.6 93 1017.5 2.2 S 2.2 0.0 0.0
03:10 10.7 9.6 93 1017.7 2.2 S 2.2 0.0 0.0
03:26 10.5 9.6 94 1017.8 2.2 S 2.2 0.0 0.0
03:27 10.5 9.6 94 1017.6 2.2 S 2.2 0.0 0.0
03:28 10.5 9.6 94 1017.6 2.2 S 2.2 0.0 0.0
03:29 10.5 9.6 94 1017.9 1.6 S 2.2 0.0 0.0
03:30 10.5 9.6 94 1017.7 1.6 S 2.2 0.0 0.0
03:31 10.5 9.6 94 1017.8 1.6 S 2.2 0.0 0.0
03:32 10.5 9.6 94 1017.8 1.6 S 2.2 0.0 0.0
03:33 10.5 9.6 94 1017.4 2.2 S 2.2 0.0 0.0
03:34 10.5 9.6 94 1017.6 2.2 S 2.2 0.0 0.0
03:35 10.5 9.6 94 1017.6 2.2 S 2.2 0.0 0.0
03:36 10.5 9.6 94 1017.5 1.6 S 2.2 0.0 0.0
03:37 10.5 9.6 94 1017.4 1.6 S 2.2 0.0 0.0
03:38 10.5 9.6 94 1017.6 1.6 S 2.2 0.0 0.0
03:39 10.5 9.6 94 1017.6 2.2 S 2.2 0.0 0.0
03:40 10.5 9.6 94 1017.7 2.2 S 2.2 0.0 0.0
03:41 10.5 9.6 94 1017.5 2.2 S 2.2 0.0 0.0
03:42 10.5 9.6 94 1017.8 1.6 S 2.2 0.0 0.0
03:43 10.5 9.6 94 1017.8 1.6 S 2.2 0.0 0.0
03:44 10.5 9.6 94 1017.5 1.6 S 2.2 0.0 0.0
03:45 10.5 9.6 94 1017.7 1.6 S 2.2 0.0 0.0
03:46 10.5 9.6 94 1017.6 2.2 S 2.2 0.0 0.0
03:47 10.5 9.6 94 1017.6 2.2 S 2.2 0.0 0.0
03:48 10.5 9.6 94 1017.6 1.6 S 2.2 0.0 0.0
03:49 10.5 9.6 94 1017.5 1.6 S 2.2 0.0 0.0
03:50 10.5 9.6 94 1017.5 1.6 S 2.2 0.0 0.0
03:51 10.5 9.6 94 1017.6 1.6 S 2.2 0.0 0.0
03:52 10.5 9.6 94 1017.7 1.6 S 2.2 0.0 0.0
03:53 10.5 9.6 94 1017.7 1.6 S 2.2 0.0 0.0
03:54 10.5 9.6 94 1017.6 1.6 S 2.2 0.0 0.0
03:55 10.5 9.6 94 1017.4 1.6 S 2.2 0.0 0.0
03:56 10.5 9.6 94 1017.6 2.2 S 2.2 0.0 0.0
04:09 10.4 9.5 94 1017.5 1.6 SW 2.2 0.0 0.0
04:10 10.4 9.5 94 1017.6 1.6 SW 2.2 0.0 0.0
04:21 10.2 9.3 94 1017.4 2.2 SW 2.2 0.0 0.0
04:22 10.2 9.3 94 1017.2 2.2 SW 2.2 0.0 0.0
04:23 10.1 9.2 94 1017.2 2.2 SW 2.2 0.0 0.0
04:24 10.1 9.2 94 1017.3 2.2 SW 2.2 0.0 0.0
06:19 11.1 10.5 96 1016.8 2.2 S 2.2 0.0 0.0
06:20 11.1 10.5 96 1016.9 1.6 S 2.2 0.0 0.0
06:21 11.1 10.5 96 1017.0 1.6 S 2.2 0.0 0.0
06:22 11.1 10.5 96 1016.8 1.6 S 2.2 0.0 0.0
06:23 11.1 10.5 96 1016.8 1.6 SE 2.2 0.0 0.0
06:24 11.1 10.5 96 1016.8 1.6 S 2.2 0.0 0.0
06:25 11.2 10.6 96 1016.6 1.6 SE 2.2 0.0 0.0
06:26 11.2 10.6 96 1016.6 1.6 SE 2.2 0.0 0.0
06:27 11.2 10.6 96 1016.8 2.2 SE 2.2 0.0 0.0
06:28 11.2 10.6 96 1016.6 1.6 S 2.2 0.0 0.0
06:29 11.2 10.6 96 1016.8 1.6 SE 2.2 0.0 0.0
06:30 11.2 10.6 96 1016.7 1.6 S 2.2 0.0 0.0
06:31 11.2 10.6 96 1016.9 1.6 SSE 2.2 0.0 0.0
06:32 11.2 10.6 96 1016.6 2.2 SE 2.2 0.0 0.0
06:33 11.3 10.7 96 1016.5 1.6 SE 2.2 0.0 0.0
06:34 11.3 10.7 96 1016.6 2.2 SE 2.2 0.0 0.0
06:35 11.3 10.8 97 1016.6 2.2 SE 2.2 0.0 0.0
06:36 11.3 10.8 97 1016.6 2.2 SE 2.2 0.0 0.0
00:09 11.5 10.1 91 1020.0 3.1 S 3.1 0.0 0.0
00:10 11.5 10.2 92 1020.1 3.1 S 3.1 0.0 0.0
00:11 11.5 10.2 92 1020.2 3.1 S 3.1 0.0 0.0
00:12 11.6 10.3 92 1020.1 2.2 S 3.1 0.0 0.0
00:13 11.6 10.3 92 1019.8 2.2 S 3.1 0.0 0.0
00:14 11.6 10.3 92 1020.0 2.2 S 3.1 0.0 0.0
00:15 11.6 10.3 92 1019.8 1.6 S 3.1 0.0 0.0
00:16 11.6 10.3 92 1020.0 2.2 SW 3.1 0.0 0.0
00:17 11.6 10.3 92 1019.9 2.2 S 3.1 0.0 0.0
00:18 11.6 10.3 92 1019.9 2.2 S 3.1 0.0 0.0
00:19 11.6 10.3 92 1019.7 2.2 S 3.1 0.0 0.0
00:20 11.6 10.3 92 1020.0 2.2 S 3.1 0.0 0.0
00:21 11.6 10.3 92 1019.9 2.2 S 3.1 0.0 0.0
00:35 11.4 10.1 92 1019.6 3.1 SW 3.1 0.0 0.0
00:36 11.4 10.1 92 1019.8 2.2 SW 3.1 0.0 0.0
00:37 11.4 10.1 92 1019.7 2.2 SW 3.1 0.0 0.0
00:38 11.3 10.1 92 1019.5 1.6 SW 3.1 0.0 0.0
00:39 11.3 10.1 92 1019.5 2.2 SW 3.1 0.0 0.0
00:40 11.3 10.1 92 1019.6 2.2 S 3.1 0.0 0.0
00:41 11.3 10.1 92 1019.8 2.2 S 3.1 0.0 0.0
00:42 11.3 10.1 92 1019.6 2.2 S 3.1 0.0 0.0
00:43 11.3 10.1 92 1019.7 3.1 S 3.1 0.0 0.0
01:23 11.5 10.4 93 1019.5 3.1 S 3.1 0.0 0.0
01:24 11.5 10.4 93 1019.5 3.1 S 3.1 0.0 0.0
01:25 11.5 10.4 93 1019.3 3.1 S 3.1 0.0 0.0
01:26 11.5 10.4 93 1019.3 3.1 SSW 3.1 0.0 0.0
01:27 11.5 10.4 93 1019.3 3.1 S 3.1 0.0 0.0
01:28 11.5 10.4 93 1019.3 2.2 S 3.1 0.0 0.0
01:29 11.5 10.4 93 1019.3 2.2 S 3.1 0.0 0.0
01:30 11.5 10.4 93 1019.4 3.1 SW 3.1 0.0 0.0
01:31 11.5 10.4 93 1019.1 3.1 SW 3.1 0.0 0.0
01:32 11.5 10.4 93 1019.1 3.1 S 3.1 0.0 0.0
01:33 11.4 10.3 93 1019.1 3.1 S 3.1 0.0 0.0
01:51 11.4 10.3 93 1019.1 1.6 S 3.1 0.0 0.0
01:52 11.4 10.3 93 1018.9 1.6 S 3.1 0.0 0.0
01:53 11.4 10.3 93 1019.0 1.6 S 3.1 0.0 0.0
02:24 11.2 10.3 94 1018.2 3.1 SE 3.1 0.0 0.0
02:25 11.1 10.2 94 1018.2 2.2 S 3.1 0.0 0.0
02:26 11.1 10.2 94 1018.2 2.2 S 3.1 0.0 0.0
02:27 11.1 10.2 94 1018.2 2.2 S 3.1 0.0 0.0
02:28 11.1 10.2 94 1018.0 2.2 S 3.1 0.0 0.0
02:29 11.1 10.2 94 1018.1 2.2 S 3.1 0.0 0.0
02:30 11.1 10.2 94 1018.2 2.2 SW 3.1 0.0 0.0
02:31 11.1 10.2 94 1018.2 3.1 S 3.1 0.0 0.0
02:32 11.1 10.2 94 1018.1 3.1 S 3.1 0.0 0.0
02:33 11.1 10.2 94 1018.0 1.6 S 3.1 0.0 0.0
02:34 11.1 10.2 94 1018.1 1.6 S 3.1 0.0 0.0
02:35 11.1 10.2 94 1018.2 1.6 SW 3.1 0.0 0.0
02:36 11.1 10.2 94 1017.9 1.6 SW 3.1 0.0 0.0
02:37 11.0 10.1 94 1018.0 1.6 SW 3.1 0.0 0.0
02:38 11.0 10.1 94 1018.0 1.6 W 3.1 0.0 0.0
02:39 11.0 10.1 94 1018.0 1.6 W 3.1 0.0 0.0
02:40 11.0 10.1 94 1018.1 2.2 SW 3.1 0.0 0.0
02:41 11.0 10.1 94 1017.9 1.6 SW 3.1 0.0 0.0
02:42 11.0 10.1 94 1017.9 1.6 SW 3.1 0.0 0.0
03:11 10.7 9.6 93 1017.7 3.1 SSW 3.1 0.0 0.0
03:12 10.6 9.5 93 1017.9 3.1 SSW 3.1 0.0 0.0
03:13 10.6 9.5 93 1017.9 3.1 SSW 3.1 0.0 0.0
03:14 10.6 9.5 93 1017.8 3.1 S 3.1 0.0 0.0
03:15 10.6 9.5 93 1017.8 3.1 S 3.1 0.0 0.0
03:16 10.6 9.7 94 1017.8 2.2 SW 3.1 0.0 0.0
03:17 10.6 9.7 94 1017.7 1.6 WSW 3.1 0.0 0.0
03:18 10.6 9.7 94 1017.8 1.6 S 3.1 0.0 0.0
03:19 10.6 9.7 94 1017.7 1.6 SW 3.1 0.0 0.0
03:20 10.6 9.7 94 1017.7 1.6 SW 3.1 0.0 0.0
03:21 10.6 9.7 94 1017.6 2.2 SSW 3.1 0.0 0.0
03:22 10.6 9.7 94 1017.8 2.2 S 3.1 0.0 0.0
03:23 10.6 9.7 94 1017.8 2.2 S 3.1 0.0 0.0
03:24 10.6 9.7 94 1017.7 2.2 S 3.1 0.0 0.0
03:25 10.5 9.6 94 1017.8 2.2 S 3.1 0.0 0.0
03:57 10.5 9.6 94 1017.4 3.1 S 3.1 0.0 0.0
03:58 10.5 9.6 94 1017.6 3.1 S 3.1 0.0 0.0
03:59 10.5 9.6 94 1017.5 2.2 SW 3.1 0.0 0.0
04:00 10.5 9.6 94 1017.5 2.2 SW 3.1 0.0 0.0
04:01 10.5 9.6 94 1017.4 1.6 SW 3.1 0.0 0.0
04:02 10.5 9.6 94 1017.4 1.6 W 3.1 0.0 0.0
04:03 10.5 9.6 94 1017.4 1.6 W 3.1 0.0 0.0
04:04 10.5 9.6 94 1017.6 1.6 W 3.1 0.0 0.0
04:05 10.5 9.6 94 1017.5 1.6 SW 3.1 0.0 0.0
04:06 10.5 9.6 94 1017.4 1.6 SW 3.1 0.0 0.0
04:07 10.5 9.6 94 1017.6 1.6 SW 3.1 0.0 0.0
04:08 10.4 9.5 94 1017.4 1.6 SW 3.1 0.0 0.0
04:25 10.2 9.3 94 1017.1 3.1 SW 3.1 0.0 0.0
04:26 10.2 9.3 94 1017.2 3.1 S 3.1 0.0 0.0
05:45 11.2 10.6 96 1016.9 0.0 SW 3.1 0.0 0.0
05:46 11.2 10.6 96 1016.7 0.0 SW 3.1 0.0 0.0
05:47 11.2 10.6 96 1016.8 0.7 SW 3.1 0.0 0.0
05:48 11.2 10.6 96 1016.8 1.6 S 3.1 0.0 0.0
06:37 11.3 10.8 97 1016.6 3.1 SE 3.1 0.0 0.0
06:38 11.3 10.8 97 1016.6 3.1 SE 3.1 0.0 0.0
06:39 11.3 10.8 97 1016.9 3.1 S 3.1 0.0 0.0
06:40 11.3 10.8 97 1016.8 3.1 SW 3.1 0.0 0.0
00:00 11.4 10.0 91 1020.1 2.2 S 3.8 0.0 0.0
00:01 11.4 10.0 91 1020.2 3.1 S 3.8 0.0 0.0
00:02 11.4 10.0 91 1020.1 2.2 S 3.8 0.0 0.0
00:03 11.4 10.0 91 1020.1 2.2 S 3.8 0.0 0.0
00:04 11.4 10.0 91 1020.3 2.2 S 3.8 0.0 0.0
00:05 11.4 10.0 91 1020.1 2.2 S 3.8 0.0 0.0
00:06 11.5 10.1 91 1020.1 2.2 S 3.8 0.0 0.0
00:07 11.5 10.1 91 1020.0 2.2 S 3.8 0.0 0.0
00:08 11.5 10.1 91 1019.9 3.1 S 3.8 0.0 0.0
00:44 11.3 10.1 92 1019.7 3.8 S 3.8 0.0 0.0
00:45 11.3 10.1 92 1019.7 3.8 S 3.8 0.0 0.0
00:46 11.3 10.1 92 1019.8 3.8 S 3.8 0.0 0.0
00:47 11.3 10.1 92 1019.7 3.1 S 3.8 0.0 0.0
00:48 11.3 10.1 92 1019.7 3.8 S 3.8 0.0 0.0
00:49 11.3 10.1 92 1019.8 3.8 S 3.8 0.0 0.0
01:17 11.6 10.5 93 1019.4 3.1 S 3.8 0.0 0.0
01:18 11.6 10.5 93 1019.6 2.2 S 3.8 0.0 0.0
01:19 11.6 10.5 93 1019.5 3.1 S 3.8 0.0 0.0
01:20 11.6 10.5 93 1019.2 3.1 S 3.8 0.0 0.0
01:21 11.6 10.5 93 1019.4 3.1 S 3.8 0.0 0.0
01:22 11.6 10.5 93 1019.4 2.2 S 3.8 0.0 0.0
01:45 11.5 10.4 93 1019.0 2.2 S 3.8 0.0 0.0
01:46 11.5 10.4 93 1019.2 2.2 SSW 3.8 0.0 0.0
01:47 11.5 10.4 93 1019.1 2.2 SSW 3.8 0.0 0.0
01:48 11.5 10.4 93 1019.1 1.6 S 3.8 0.0 0.0
01:49 11.4 10.3 93 1018.9 0.7 S 3.8 0.0 0.0
01:50 11.4 10.3 93 1019.0 0.7 S 3.8 0.0 0.0
04:27 10.2 9.3 94 1016.9 3.8 S 3.8 0.0 0.0
04:39 10.7 9.9 95 1016.9 3.1 SW 3.8 0.0 0.0
04:40 10.7 9.9 95 1016.9 3.8 SW 3.8 0.0 0.0
05:29 11.2 10.6 96 1016.9 3.1 S 3.8 0.0 0.0
05:30 11.2 10.6 96 1016.9 3.1 S 3.8 0.0 0.0
05:31 11.2 10.6 96 1016.9 3.1 S 3.8 0.0 0.0
05:43 11.2 10.6 96 1016.7 0.7 SW 3.8 0.0 0.0
05:44 11.2 10.6 96 1016.9 0.0 SW 3.8 0.0 0.0
06:41 11.4 10.9 97 1016.5 3.8 SE 3.8 0.0 0.0
01:34 11.4 10.3 93 1019.2 3.1 S 4.5 0.0 0.0
01:35 11.4 10.3 93 1019.1 3.1 S 4.5 0.0 0.0
01:36 11.4 10.3 93 1019.0 2.2 SW 4.5 0.0 0.0
01:37 11.4 10.3 93 1019.2 3.1 SSE 4.5 0.0 0.0
01:38 11.4 10.3 93 1019.3 3.1 SSE 4.5 0.0 0.0
01:39 11.4 10.3 93 1019.0 3.1 SSE 4.5 0.0 0.0
01:40 11.5 10.4 93 1019.2 3.8 S 4.5 0.0 0.0
01:41 11.5 10.4 93 1019.3 3.1 S 4.5 0.0 0.0
01:42 11.5 10.4 93 1019.3 3.1 S 4.5 0.0 0.0
01:43 11.5 10.4 93 1018.9 3.1 S 4.5 0.0 0.0
01:44 11.5 10.4 93 1019.1 2.2 S 4.5 0.0 0.0
04:28 10.3 9.4 94 1017.0 4.5 SW 4.5 0.0 0.0
04:29 10.4 9.5 94 1017.2 3.8 WSW 4.5 0.0 0.0
04:30 10.4 9.5 94 1017.0 3.1 SW 4.5 0.0 0.0
04:31 10.4 9.5 94 1017.0 3.1 SW 4.5 0.0 0.0
04:32 10.5 9.6 94 1017.1 3.1 SW 4.5 0.0 0.0
04:33 10.5 9.6 94 1017.1 3.1 S 4.5 0.0 0.0
04:34 10.6 9.7 94 1017.0 3.1 SW 4.5 0.0 0.0
04:35 10.6 9.7 94 1017.0 3.1 SW 4.5 0.0 0.0
04:36 10.6 9.7 94 1017.3 3.1 SW 4.5 0.0 0.0
04:37 10.7 9.9 95 1016.9 3.1 SW 4.5 0.0 0.0
04:38 10.7 9.9 95 1016.8 3.1 SW 4.5 0.0 0.0
04:52 11.2 10.4 95 1016.8 3.8 SW 4.5 0.0 0.0
04:53 11.2 10.4 95 1016.8 3.8 SW 4.5 0.0 0.0
04:54 11.2 10.4 95 1016.9 3.8 SW 4.5 0.0 0.0
04:55 11.2 10.4 95 1016.8 4.5 SW 4.5 0.0 0.0
04:56 11.2 10.4 95 1016.6 3.8 SW 4.5 0.0 0.0
04:57 11.3 10.7 96 1016.8 3.1 SW 4.5 0.0 0.0
04:58 11.3 10.7 96 1016.8 3.8 S 4.5 0.0 0.0
04:59 11.3 10.7 96 1016.8 3.8 S 4.5 0.0 0.0
05:00 11.3 10.7 96 1016.9 3.1 SSW 4.5 0.0 0.0
05:01 11.3 10.7 96 1016.7 3.1 SSW 4.5 0.0 0.0
05:02 11.3 10.7 96 1017.0 3.1 SSW 4.5 0.0 0.0
05:03 11.3 10.7 96 1017.0 3.1 SSW 4.5 0.0 0.0
05:04 11.3 10.7 96 1016.8 3.1 SSW 4.5 0.0 0.0
05:05 11.3 10.7 96 1017.0 3.1 SSW 4.5 0.0 0.0
05:06 11.4 10.8 96 1016.9 4.5 SW 4.5 0.0 0.0
05:07 11.4 10.8 96 1016.8 4.5 SW 4.5 0.0 0.0
05:08 11.4 10.8 96 1016.9 3.8 SW 4.5 0.0 0.0
05:20 11.3 10.7 96 1017.0 3.8 S 4.5 0.0 0.0
05:21 11.3 10.7 96 1016.8 3.8 SW 4.5 0.0 0.0
05:22 11.3 10.7 96 1017.0 3.8 SW 4.5 0.0 0.0
05:23 11.3 10.7 96 1017.0 3.1 SW 4.5 0.0 0.0
05:24 11.3 10.7 96 1017.1 3.1 SW 4.5 0.0 0.0
05:25 11.3 10.7 96 1016.9 2.2 SW 4.5 0.0 0.0
05:26 11.3 10.7 96 1016.9 2.2 S 4.5 0.0 0.0
05:27 11.3 10.7 96 1017.0 2.2 SW 4.5 0.0 0.0
05:28 11.2 10.6 96 1016.9 3.1 S 4.5 0.0 0.0
05:32 11.2 10.6 96 1017.0 4.5 S 4.5 0.0 0.0
05:33 11.2 10.6 96 1016.8 3.8 S 4.5 0.0 0.0
05:34 11.2 10.6 96 1017.0 3.8 S 4.5 0.0 0.0
05:35 11.2 10.6 96 1016.9 2.2 S 4.5 0.0 0.0
05:36 11.2 10.6 96 1016.9 3.1 S 4.5 0.0 0.0
05:37 11.2 10.6 96 1016.9 3.1 S 4.5 0.0 0.0
05:38 11.2 10.6 96 1016.9 2.2 S 4.5 0.0 0.0
05:39 11.2 10.6 96 1016.9 2.2 S 4.5 0.0 0.0
05:40 11.2 10.6 96 1017.0 1.6 W 4.5 0.0 0.0
05:41 11.2 10.6 96 1016.7 1.6 SW 4.5 0.0 0.0
05:42 11.2 10.6 96 1016.7 0.7 SW 4.5 0.0 0.0
06:42 11.4 10.9 97 1016.6 4.5 SE 4.5 0.0 0.0
06:43 11.4 10.9 97 1016.8 4.5 S 4.5 0.0 0.0
06:44 11.4 10.9 97 1016.7 3.1 SE 4.5 0.0 0.0
06:45 11.5 11.0 97 1016.8 4.5 S 4.5 0.0 0.0
06:46 11.5 11.0 97 1016.7 4.5 S 4.5 0.0 0.0
06:47 11.5 11.0 97 1016.8 4.5 S 4.5 0.0 0.0
07:09 12.0 11.7 98 1016.6 4.5 S 4.5 0.0 0.0
07:10 12.1 11.8 98 1016.3 3.8 SW 4.5 0.0 0.0
07:11 12.1 11.8 98 1016.4 4.5 SSE 4.5 0.0 0.0
21:10 14.3 11.5 83 1010.6 3.1 W 4.5 0.0 0.0
21:11 14.3 11.5 83 1010.4 3.8 W 4.5 0.0 0.0
21:12 14.3 11.5 83 1010.6 3.8 W 4.5 0.0 0.0
21:47 13.9 11.4 85 1010.4 3.1 SW 4.5 0.0 0.0
21:48 13.9 11.4 85 1010.4 3.1 W 4.5 0.0 0.0
21:49 13.9 11.4 85 1010.2 3.1 W 4.5 0.0 0.0
21:50 13.8 11.3 85 1010.4 1.6 W 4.5 0.0 0.0
21:51 13.8 11.3 85 1010.4 1.6 W 4.5 0.0 0.0
21:52 13.8 11.3 85 1010.3 2.2 W 4.5 0.0 0.0
21:53 13.8 11.3 85 1010.5 2.2 NW 4.5 0.0 0.0
21:54 13.8 11.3 85 1010.4 3.8 SW 4.5 0.0 0.0
21:55 13.8 11.3 85 1010.4 3.8 W 4.5 0.0 0.0
21:56 13.8 11.3 85 1010.5 3.8 SW 4.5 0.0 0.0
21:57 13.8 11.3 85 1010.5 3.8 WSW 4.5 0.0 0.0
21:58 13.8 11.3 85 1010.4 3.1 NW 4.5 0.0 0.0
21:59 13.8 11.3 85 1010.2 3.8 W 4.5 0.0 0.0
22:00 13.8 11.3 85 1010.3 3.1 W 4.5 0.0 0.0
22:01 13.8 11.3 85 1010.4 3.1 NW 4.5 0.0 0.0
22:02 13.8 11.3 85 1010.3 3.1 W 4.5 0.0 0.0
22:03 13.8 11.3 85 1010.3 3.8 W 4.5 0.0 0.0
22:19 13.7 11.4 86 1010.3 2.2 SW 4.5 0.0 0.0
22:20 13.7 11.4 86 1010.5 3.1 NW 4.5 0.0 0.0
22:21 13.7 11.4 86 1010.2 3.8 SW 4.5 0.0 0.0
22:42 13.5 11.2 86 1010.3 3.1 NW 4.5 0.0 0.0
00:50 11.3 10.1 92 1019.8 5.4 S 5.4 0.0 0.0
00:51 11.3 10.1 92 1019.8 4.5 S 5.4 0.0 0.0
00:52 11.3 10.1 92 1019.6 5.4 S 5.4 0.0 0.0
00:53 11.4 10.1 92 1019.7 4.5 S 5.4 0.0 0.0
00:54 11.4 10.1 92 1019.7 4.5 S 5.4 0.0 0.0
00:55 11.4 10.1 92 1019.6 3.8 S 5.4 0.0 0.0
00:56 11.4 10.1 92 1019.7 3.8 S 5.4 0.0 0.0
00:57 11.4 10.1 92 1019.7 5.4 SE 5.4 0.0 0.0
00:58 11.4 10.1 92 1019.6 5.4 S 5.4 0.0 0.0
00:59 11.4 10.1 92 1019.6 5.4 S 5.4 0.0 0.0
01:00 11.5 10.2 92 1019.6 5.4 S 5.4 0.0 0.0
01:01 11.5 10.2 92 1019.5 5.4 S 5.4 0.0 0.0
01:02 11.5 10.2 92 1019.5 5.4 S 5.4 0.0 0.0
01:03 11.5 10.2 92 1019.6 5.4 S 5.4 0.0 0.0
01:04 11.5 10.2 92 1019.5 5.4 S 5.4 0.0 0.0
01:05 11.5 10.2 92 1019.5 5.4 S 5.4 0.0 0.0
01:06 11.6 10.5 93 1019.7 3.8 S 5.4 0.0 0.0
01:07 11.6 10.5 93 1019.7 3.8 SW 5.4 0.0 0.0
01:08 11.6 10.5 93 1019.7 3.8 S 5.4 0.0 0.0
01:09 11.6 10.5 93 1019.7 3.8 S 5.4 0.0 0.0
01:10 11.6 10.5 93 1019.8 3.8 S 5.4 0.0 0.0
01:11 11.6 10.5 93 1019.5 3.8 S 5.4 0.0 0.0
01:12 11.6 10.5 93 1019.7 3.8 S 5.4 0.0 0.0
01:13 11.6 10.5 93 1019.4 3.8 S 5.4 0.0 0.0
01:14 11.6 10.5 93 1019.4 3.1 S 5.4 0.0 0.0
01:15 11.6 10.5 93 1019.6 3.1 S 5.4 0.0 0.0
01:16 11.6 10.5 93 1019.5 2.2 SW 5.4 0.0 0.0
04:41 10.8 10.0 95 1016.7 5.4 SW 5.4 0.0 0.0
04:42 10.9 10.1 95 1016.7 4.5 SW 5.4 0.0 0.0
04:43 10.9 10.1 95 1016.7 3.8 S 5.4 0.0 0.0
04:44 10.9 10.1 95 1016.9 3.8 SW 5.4 0.0 0.0
04:45 11.0 10.2 95 1016.9 4.5 SW 5.4 0.0 0.0
04:46 11.0 10.2 95 1016.7 4.5 SW 5.4 0.0 0.0
04:47 11.0 10.2 95 1016.8 4.5 SW 5.4 0.0 0.0
04:48 11.1 10.3 95 1016.9 3.8 S 5.4 0.0 0.0
04:49 11.1 10.3 95 1016.7 3.1 SW 5.4 0.0 0.0
04:50 11.1 10.3 95 1016.7 3.1 SW 5.4 0.0 0.0
04:51 11.1 10.3 95 1016.8 2.2 S 5.4 0.0 0.0
05:09 11.4 10.8 96 1016.8 5.4 S 5.4 0.0 0.0
05:10 11.4 10.8 96 1016.7 3.8 SW 5.4 0.0 0.0
05:11 11.4 10.8 96 1016.9 3.8 S 5.4 0.0 0.0
05:12 11.4 10.8 96 1016.9 3.8 SW 5.4 0.0 0.0
05:13 11.4 10.8 96 1017.1 3.8 S 5.4 0.0 0.0
05:14 11.4 10.8 96 1017.1 3.8 SSW 5.4 0.0 0.0
05:15 11.4 10.8 96 1017.0 3.8 S 5.4 0.0 0.0
05:16 11.4 10.8 96 1017.0 3.8 SW 5.4 0.0 0.0
05:17 11.4 10.8 96 1016.9 4.5 SW 5.4 0.0 0.0
05:18 11.4 10.8 96 1017.0 4.5 SW 5.4 0.0 0.0
05:19 11.4 10.8 96 1016.9 4.5 S 5.4 0.0 0.0
06:48 11.5 11.0 97 1016.7 5.4 S 5.4 0.0 0.0
06:49 11.6 11.1 97 1016.6 4.5 SE 5.4 0.0 0.0
06:50 11.6 11.1 97 1016.7 5.4 S 5.4 0.0 0.0
06:51 11.6 11.1 97 1016.8 5.4 S 5.4 0.0 0.0
06:52 11.6 11.1 97 1016.8 4.5 SSW 5.4 0.0 0.0
06:53 11.6 11.1 97 1016.9 5.4 S 5.4 0.0 0.0
06:54 11.7 11.2 97 1016.8 4.5 S 5.4 0.0 0.0
06:55 11.7 11.2 97 1016.8 4.5 S 5.4 0.0 0.0
06:56 11.7 11.2 97 1016.8 4.5 SW 5.4 0.0 0.0
06:57 11.7 11.2 97 1016.8 3.8 S 5.4 0.0 0.0
06:58 11.8 11.3 97 1016.7 4.5 S 5.4 0.0 0.0
06:59 11.8 11.3 97 1016.7 5.4 S 5.4 0.0 0.0
07:00 11.8 11.3 97 1016.7 3.8 S 5.4 0.0 0.0
07:01 11.8 11.3 97 1016.7 3.8 S 5.4 0.0 0.0
07:02 11.8 11.3 97 1016.8 3.8 S 5.4 0.0 0.0
07:03 11.8 11.3 97 1016.4 3.8 S 5.4 0.0 0.0
07:04 11.8 11.3 97 1016.6 3.8 S 5.4 0.0 0.0
07:05 11.8 11.3 97 1016.7 3.8 S 5.4 0.0 0.0
07:06 11.8 11.3 97 1016.3 3.8 S 5.4 0.0 0.0
07:07 12.0 11.7 98 1016.5 3.8 S 5.4 0.0 0.0
07:08 12.0 11.7 98 1016.6 4.5 S 5.4 0.0 0.0
07:12 12.1 11.8 98 1016.4 5.4 SW 5.4 0.0 0.0
07:13 12.1 11.8 98 1016.7 5.4 S 5.4 0.0 0.0
07:14 12.1 11.8 98 1016.5 5.4 S 5.4 0.0 0.0
07:15 12.1 11.8 98 1016.5 5.4 S 5.4 0.0 0.0
07:16 12.2 11.9 98 1016.5 5.4 SE 5.4 0.0 0.0
07:17 12.2 11.9 98 1016.6 4.5 S 5.4 0.0 0.0
07:18 12.2 11.9 98 1016.5 4.5 S 5.4 0.0 0.0
07:19 12.3 12.0 98 1016.3 5.4 SW 5.4 0.0 0.0
07:20 12.3 12.0 98 1016.4 4.5 S 5.4 0.0 0.0
07:21 12.3 12.0 98 1016.5 4.5 S 5.4 0.0 0.0
19:53 15.2 11.6 79 1010.8 4.5 SW 5.4 0.0 0.0
19:54 15.2 11.6 79 1010.9 4.5 SW 5.4 0.0 0.0
19:55 15.2 11.6 79 1010.7 4.5 SW 5.4 0.0 0.0
19:56 15.2 11.6 79 1010.9 4.5 SW 5.4 0.0 0.0
19:57 15.2 11.6 79 1010.9 4.5 SW 5.4 0.0 0.0
19:58 15.1 11.5 79 1010.8 5.4 SW 5.4 0.0 0.0
19:59 15.1 11.5 79 1010.9 5.4 SW 5.4 0.0 0.0
20:00 15.1 11.5 79 1010.7 4.5 W 5.4 0.0 0.0
20:01 15.1 11.5 79 1010.7 5.4 W 5.4 0.0 0.0
20:02 15.1 11.5 79 1010.8 5.4 W 5.4 0.0 0.0
20:03 15.1 11.5 79 1010.9 5.4 SW 5.4 0.0 0.0
21:06 14.4 11.6 83 1010.3 4.5 W 5.4 0.0 0.0
21:07 14.4 11.6 83 1010.6 4.5 W 5.4 0.0 0.0
21:08 14.4 11.6 83 1010.4 4.5 W 5.4 0.0 0.0
21:09 14.4 11.6 83 1010.4 4.5 W 5.4 0.0 0.0
21:13 14.2 11.4 83 1010.3 5.4 W 5.4 0.0 0.0
21:14 14.2 11.4 83 1010.4 5.4 W 5.4 0.0 0.0
21:15 14.2 11.4 83 1010.5 5.4 W 5.4 0.0 0.0
21:16 14.2 11.5 84 1010.5 5.4 W 5.4 0.0 0.0
21:17 14.2 11.5 84 1010.5 3.8 W 5.4 0.0 0.0
21:18 14.2 11.5 84 1010.3 3.1 W 5.4 0.0 0.0
21:19 14.2 11.5 84 1010.4 3.1 W 5.4 0.0 0.0
21:20 14.2 11.5 84 1010.5 3.1 WSW 5.4 0.0 0.0
21:21 14.2 11.5 84 1010.5 4.5 W 5.4 0.0 0.0
21:22 14.2 11.5 84 1010.4 4.5 W 5.4 0.0 0.0
21:23 14.1 11.4 84 1010.5 4.5 W 5.4 0.0 0.0
21:24 14.1 11.4 84 1010.2 5.4 ESE 5.4 0.0 0.0
22:14 13.7 11.4 86 1010.2 4.5 SW 5.4 0.0 0.0
22:15 13.7 11.4 86 1010.2 4.5 SW 5.4 0.0 0.0
22:16 13.7 11.4 86 1010.2 4.5 SW 5.4 0.0 0.0
22:17 13.7 11.4 86 1010.6 2.2 NW 5.4 0.0 0.0
22:18 13.7 11.4 86 1010.2 3.8 W 5.4 0.0 0.0
22:22 13.7 11.4 86 1010.3 5.4 NW 5.4 0.0 0.0
22:41 13.5 11.2 86 1010.1 3.1 W 5.4 0.0 0.0
22:57 13.3 11.0 86 1010.1 3.8 W 5.4 0.0 0.0
22:58 13.3 11.0 86 1010.3 3.8 SW 5.4 0.0 0.0
22:59 13.3 10.8 85 1010.0 3.8 W 5.4 0.0 0.0
18:35 16.1 10.4 69 1011.3 3.8 SW 6.0 0.0 0.0
18:36 16.1 10.4 69 1011.4 6.0 SW 6.0 0.0 0.0
18:37 16.1 10.4 69 1011.4 6.0 SW 6.0 0.0 0.0
19:18 15.5 10.5 72 1010.9 4.5 W 6.0 0.0 0.0
19:19 15.5 10.5 72 1011.0 4.5 W 6.0 0.0 0.0
19:20 15.5 10.7 73 1011.1 5.4 SW 6.0 0.0 0.0
19:21 15.5 10.7 73 1010.8 5.4 SW 6.0 0.0 0.0
19:22 15.5 10.7 73 1010.9 5.4 SW 6.0 0.0 0.0
19:42 15.3 11.1 76 1010.9 6.0 SW 6.0 0.0 0.0
19:43 15.3 11.1 76 1011.0 6.0 SW 6.0 0.0 0.0
19:44 15.3 11.3 77 1010.9 3.8 SW 6.0 0.0 0.0
19:45 15.3 11.3 77 1010.7 3.8 SW 6.0 0.0 0.0
19:46 15.2 11.4 78 1010.8 5.4 SW 6.0 0.0 0.0
19:47 15.2 11.4 78 1011.0 5.4 SW 6.0 0.0 0.0
19:48 15.2 11.4 78 1010.9 5.4 SW 6.0 0.0 0.0
19:49 15.2 11.4 78 1010.8 5.4 SW 6.0 0.0 0.0
19:50 15.2 11.4 78 1010.9 5.4 SW 6.0 0.0 0.0
19:51 15.2 11.4 78 1010.9 5.4 SSW 6.0 0.0 0.0
19:52 15.2 11.4 78 1010.9 5.4 SSW 6.0 0.0 0.0
20:04 15.0 11.4 79 1010.9 6.0 W 6.0 0.0 0.0
20:05 15.0 11.4 79 1010.8 6.0 W 6.0 0.0 0.0
20:06 15.0 11.4 79 1010.7 4.5 SW 6.0 0.0 0.0
21:40 14.0 11.3 84 1010.4 3.8 SW 6.0 0.0 0.0
21:41 14.0 11.3 84 1010.5 3.8 W 6.0 0.0 0.0
21:42 14.0 11.3 84 1010.3 2.2 SW 6.0 0.0 0.0
21:43 13.9 11.2 84 1010.4 4.5 W 6.0 0.0 0.0
21:44 13.9 11.4 85 1010.4 3.1 SW 6.0 0.0 0.0
21:45 13.9 11.4 85 1010.4 4.5 SW 6.0 0.0 0.0
22:34 13.5 11.2 86 1010.1 4.5 SW 6.0 0.0 0.0
22:35 13.5 11.2 86 1010.2 3.1 NW 6.0 0.0 0.0
22:36 13.5 11.2 86 1010.4 3.8 W 6.0 0.0 0.0
22:37 13.5 11.2 86 1010.2 3.8 W 6.0 0.0 0.0
22:38 13.5 11.2 86 1010.4 3.8 NW 6.0 0.0 0.0
22:39 13.5 11.2 86 1010.4 3.8 NW 6.0 0.0 0.0
22:40 13.5 11.2 86 1010.3 2.2 NW 6.0 0.0 0.0
22:44 13.5 11.2 86 1010.3 6.0 W 6.0 0.0 0.0
22:45 13.5 11.2 86 1010.3 6.0 SW 6.0 0.0 0.0
22:46 13.5 11.2 86 1010.1 4.5 W 6.0 0.0 0.0
22:47 13.5 11.2 86 1010.4 4.5 W 6.0 0.0 0.0
22:48 13.5 11.2 86 1010.3 2.2 NW 6.0 0.0 0.0
22:49 13.5 11.2 86 1010.2 2.2 W 6.0 0.0 0.0
22:50 13.4 11.1 86 1010.2 3.1 NW 6.0 0.0 0.0
22:51 13.4 11.1 86 1010.3 3.8 WSW 6.0 0.0 0.0
22:52 13.4 11.1 86 1010.3 4.5 N 6.0 0.0 0.0
22:53 13.4 11.1 86 1010.2 3.1 N 6.0 0.0 0.0
22:54 13.4 11.1 86 1010.1 5.4 W 6.0 0.0 0.0
22:55 13.4 11.1 86 1010.4 5.4 N 6.0 0.0 0.0
22:56 13.4 11.1 86 1010.2 3.1 SW 6.0 0.0 0.0
23:00 13.3 10.8 85 1010.0 6.0 W 6.0 0.0 0.0
23:01 13.3 10.8 85 1010.2 6.0 W 6.0 0.0 0.0
23:02 13.3 10.8 85 1010.1 6.0 W 6.0 0.0 0.0
23:03 13.3 10.8 85 1010.1 6.0 W 6.0 0.0 0.0
23:04 13.3 10.8 85 1010.1 6.0 W 6.0 0.0 0.0
23:05 13.3 10.8 85 1010.0 6.0 W 6.0 0.0 0.0
23:19 13.0 10.5 85 1009.9 4.5 SW 6.0 0.0 0.0
23:20 13.0 10.5 85 1009.9 6.0 N 6.0 0.0 0.0
23:21 13.0 10.5 85 1009.9 5.4 SW 6.0 0.0 0.0
23:22 13.0 10.5 85 1010.0 3.8 N 6.0 0.0 0.0
23:23 13.0 10.5 85 1009.7 4.5 NW 6.0 0.0 0.0
07:22 12.3 12.0 98 1016.5 6.0 S 6.9 0.0 0.0
07:23 12.3 12.0 98 1016.3 6.9 S 6.9 0.0 0.0
07:24 12.4 12.1 98 1016.4 5.4 SW 6.9 0.0 0.0
07:25 12.4 12.1 98 1016.4 4.5 SW 6.9 0.0 0.0
07:26 12.4 12.1 98 1016.4 6.9 SW 6.9 0.0 0.0
07:27 12.4 12.1 98 1016.3 6.9 SW 6.9 0.0 0.0
07:28 12.5 11.6 94 1016.4 6.0 S 6.9 0.0 0.0
07:29 12.5 11.6 94 1016.2 6.9 S 6.9 0.0 0.0
07:30 12.5 11.6 94 1016.3 6.9 W 6.9 0.0 0.0
07:31 12.5 11.6 94 1016.3 5.4 SW 6.9 0.0 0.0
09:40 15.4 13.3 87 1015.2 6.0 S 6.9 0.0 0.0
09:41 15.4 13.1 86 1015.4 6.0 S 6.9 0.0 0.0
09:42 15.5 13.2 86 1015.3 5.4 SW 6.9 0.0 0.0
09:43 15.6 13.3 86 1015.1 6.0 SW 6.9 0.0 0.0
09:44 15.6 13.3 86 1015.3 6.0 SW 6.9 0.0 0.0
09:45 15.6 13.1 85 1015.3 6.0 S 6.9 0.0 0.0
09:46 15.7 13.2 85 1015.1 3.8 SW 6.9 0.0 0.0
09:47 15.7 13.2 85 1015.2 3.1 SW 6.9 0.0 0.0
09:48 15.8 13.3 85 1015.2 6.9 S 6.9 0.0 0.0
10:21 17.4 13.9 80 1015.2 6.0 S 6.9 0.0 0.0
10:46 17.5 12.8 74 1014.7 4.5 SW 6.9 0.0 0.0
10:47 17.5 12.8 74 1014.7 4.5 SW 6.9 0.0 0.0
10:48 17.4 13.5 78 1014.5 6.9 SW 6.9 0.0 0.0
10:49 17.3 13.4 78 1014.7 6.9 SSW 6.9 0.0 0.0
10:50 17.1 13.0 77 1014.6 4.5 W 6.9 0.0 0.0
10:51 17.1 13.0 77 1014.7 6.0 SW 6.9 0.0 0.0
10:52 17.0 12.9 77 1014.5 4.5 S 6.9 0.0 0.0
10:53 17.0 12.9 77 1014.6 3.1 W 6.9 0.0 0.0
10:54 17.0 12.9 77 1014.6 4.5 W 6.9 0.0 0.0
17:46 17.4 12.1 71 1011.5 6.0 W 6.9 0.0 0.0
17:47 17.4 12.1 71 1011.6 5.4 SW 6.9 0.0 0.0
17:48 17.4 12.1 71 1011.5 6.0 SW 6.9 0.0 0.0
17:49 17.4 12.1 71 1011.4 6.0 SW 6.9 0.0 0.0
17:50 17.3 11.8 70 1011.6 6.9 SW 6.9 0.0 0.0
18:48 15.9 10.2 69 1011.2 5.4 SW 6.9 0.0 0.0
18:49 15.9 10.4 70 1011.1 6.9 SW 6.9 0.0 0.0
18:50 15.8 10.3 70 1011.3 6.0 SW 6.9 0.0 0.0
18:51 15.8 10.3 70 1011.3 6.0 SW 6.9 0.0 0.0
18:52 15.8 10.3 70 1011.1 6.0 SW 6.9 0.0 0.0
18:53 15.8 10.3 70 1010.8 6.0 SW 6.9 0.0 0.0
19:08 15.6 10.4 71 1010.9 5.4 W 6.9 0.0 0.0
19:09 15.6 10.4 71 1010.9 3.8 SW 6.9 0.0 0.0
19:10 15.6 10.4 71 1011.0 3.8 SW 6.9 0.0 0.0
19:11 15.6 10.4 71 1011.0 3.8 SW 6.9 0.0 0.0
19:12 15.6 10.4 71 1011.0 3.8 SW 6.9 0.0 0.0
19:13 15.6 10.4 71 1011.0 3.8 SW 6.9 0.0 0.0
19:14 15.6 10.4 71 1010.9 3.8 SW 6.9 0.0 0.0
19:15 15.6 10.4 71 1010.8 3.8 SW 6.9 0.0 0.0
19:16 15.5 10.5 72 1010.9 6.0 SW 6.9 0.0 0.0
19:17 15.5 10.5 72 1010.7 5.4 W 6.9 0.0 0.0
20:07 15.0 11.4 79 1010.9 6.9 W 6.9 0.0 0.0
20:08 15.0 11.4 79 1010.7 6.9 W 6.9 0.0 0.0
21:36 14.0 11.3 84 1010.3 4.5 SW 6.9 0.0 0.0
21:37 14.0 11.3 84 1010.3 3.8 W 6.9 0.0 0.0
21:38 14.0 11.3 84 1010.5 4.5 SW 6.9 0.0 0.0
21:39 14.0 11.3 84 1010.3 4.5 SW 6.9 0.0 0.0
22:23 13.7 11.4 86 1010.4 6.9 W 6.9 0.0 0.0
22:25 13.6 11.3 86 1010.3 3.8 W 6.9 0.0 0.0
22:26 13.6 11.3 86 1010.3 4.5 W 6.9 0.0 0.0
22:27 13.6 11.3 86 1010.4 3.8 W 6.9 0.0 0.0
22:28 13.6 11.3 86 1010.4 5.4 W 6.9 0.0 0.0
22:29 13.6 11.3 86 1010.3 4.5 W 6.9 0.0 0.0
22:30 13.6 11.3 86 1010.3 6.0 W 6.9 0.0 0.0
22:31 13.6 11.3 86 1010.5 5.4 NW 6.9 0.0 0.0
22:32 13.6 11.3 86 1010.3 3.1 SW 6.9 0.0 0.0
22:33 13.6 11.3 86 1010.3 3.8 W 6.9 0.0 0.0
23:18 13.1 10.6 85 1010.1 4.5 NW 6.9 0.0 0.0
23:34 12.8 10.5 86 1010.1 5.4 NE 6.9 0.0 0.0
23:35 12.8 10.5 86 1010.1 4.5 W 6.9 0.0 0.0
23:36 12.8 10.5 86 1010.2 6.0 W 6.9 0.0 0.0
23:37 12.8 10.5 86 1009.8 4.5 W 6.9 0.0 0.0
23:38 12.8 10.5 86 1009.9 6.0 W 6.9 0.0 0.0
23:39 12.8 10.5 86 1009.9 5.4 W 6.9 0.0 0.0
23:40 12.8 10.5 86 1010.0 5.4 NW 6.9 0.0 0.0
23:41 12.8 10.5 86 1010.0 6.9 W 6.9 0.0 0.0
23:42 12.8 10.5 86 1010.1 4.5 NW 6.9 0.0 0.0
07:32 12.5 11.6 94 1016.4 7.6 S 7.6 0.0 0.0
07:33 12.6 11.7 94 1016.4 7.6 S 7.6 0.0 0.0
07:34 12.6 11.7 94 1016.6 7.6 S 7.6 0.0 0.0
07:59 12.9 12.1 95 1016.1 6.9 S 7.6 0.0 0.0
08:00 12.9 12.1 95 1016.2 5.4 S 7.6 0.0 0.0
08:01 12.9 12.1 95 1016.0 6.0 SW 7.6 0.0 0.0
08:02 12.9 12.1 95 1016.1 6.0 SW 7.6 0.0 0.0
08:03 12.9 12.1 95 1016.0 6.0 S 7.6 0.0 0.0
08:04 13.0 12.2 95 1016.2 6.0 SW 7.6 0.0 0.0
08:05 13.0 12.2 95 1016.3 7.6 S 7.6 0.0 0.0
08:06 13.0 12.2 95 1016.2 7.6 S 7.6 0.0 0.0
08:07 13.0 12.2 95 1016.1 6.9 SSE 7.6 0.0 0.0
08:08 13.1 12.3 95 1016.2 6.9 S 7.6 0.0 0.0
08:09 13.1 12.3 95 1016.0 6.9 S 7.6 0.0 0.0
08:10 13.1 12.3 95 1016.3 7.6 S 7.6 0.0 0.0
08:11 13.2 12.4 95 1016.2 7.6 SE 7.6 0.0 0.0
08:47 14.1 13.3 95 1016.0 7.6 S 7.6 0.0 0.0
08:48 14.1 13.3 95 1016.0 6.0 SW 7.6 0.0 0.0
08:49 14.1 13.3 95 1016.0 6.0 SW 7.6 0.0 0.0
08:50 14.1 13.3 95 1016.1 6.0 SW 7.6 0.0 0.0
08:51 14.1 13.3 95 1016.1 6.0 SW 7.6 0.0 0.0
08:52 14.2 13.4 95 1016.1 6.0 S 7.6 0.0 0.0
08:53 14.2 13.4 95 1015.9 6.0 S 7.6 0.0 0.0
08:54 14.3 13.5 95 1015.8 7.6 SW 7.6 0.0 0.0
08:55 14.3 13.5 95 1016.1 7.6 S 7.6 0.0 0.0
08:56 14.3 13.5 95 1016.0 6.9 SW 7.6 0.0 0.0
08:57 14.3 13.5 95 1015.9 6.9 SW 7.6 0.0 0.0
08:58 14.4 13.6 95 1016.0 6.0 S 7.6 0.0 0.0
08:59 14.4 13.6 95 1016.2 7.6 SW 7.6 0.0 0.0
09:00 14.4 13.6 95 1015.8 7.6 S 7.6 0.0 0.0
09:01 14.4 13.6 95 1015.9 7.6 S 7.6 0.0 0.0
09:02 14.4 13.6 95 1015.9 7.6 S 7.6 0.0 0.0
09:03 14.4 13.6 95 1015.8 7.6 S 7.6 0.0 0.0
09:04 14.5 13.6 94 1015.9 6.9 S 7.6 0.0 0.0
09:05 14.5 13.6 94 1015.9 7.6 S 7.6 0.0 0.0
09:06 14.5 13.6 94 1016.0 6.0 S 7.6 0.0 0.0
09:07 14.6 13.7 94 1016.0 7.6 S 7.6 0.0 0.0
09:33 15.1 13.3 89 1015.4 6.9 S 7.6 0.0 0.0
09:34 15.1 13.3 89 1015.3 6.9 S 7.6 0.0 0.0
09:35 15.2 13.4 89 1015.6 6.9 SW 7.6 0.0 0.0
09:36 15.2 13.2 88 1015.5 6.9 S 7.6 0.0 0.0
09:37 15.3 13.3 88 1015.5 6.9 S 7.6 0.0 0.0
09:38 15.3 13.3 88 1015.3 6.0 S 7.6 0.0 0.0
09:39 15.4 13.3 87 1015.3 6.9 S 7.6 0.0 0.0
09:49 15.9 13.4 85 1015.1 7.6 S 7.6 0.0 0.0
09:50 15.9 13.4 85 1015.2 5.4 S 7.6 0.0 0.0
09:51 16.0 13.5 85 1015.2 6.0 SW 7.6 0.0 0.0
09:52 16.0 13.3 84 1015.1 6.9 SW 7.6 0.0 0.0
09:53 16.1 13.4 84 1015.2 7.6 SW 7.6 0.0 0.0
09:54 16.1 13.4 84 1015.0 7.6 SE 7.6 0.0 0.0
09:55 16.2 13.5 84 1015.2 5.4 SSE 7.6 0.0 0.0
09:56 16.3 13.4 83 1015.2 3.8 SW 7.6 0.0 0.0
09:57 16.3 13.4 83 1015.2 3.8 SW 7.6 0.0 0.0
09:58 16.4 13.5 83 1015.1 6.0 S 7.6 0.0 0.0
09:59 16.4 13.5 83 1015.2 6.0 S 7.6 0.0 0.0
10:00 16.5 13.4 82 1015.1 7.6 S 7.6 0.0 0.0
10:01 16.5 13.4 82 1015.2 7.6 S 7.6 0.0 0.0
10:02 16.6 13.3 81 1015.3 6.9 SE 7.6 0.0 0.0
10:03 16.6 13.3 81 1015.3 6.9 SE 7.6 0.0 0.0
10:04 16.7 13.4 81 1015.2 6.0 SE 7.6 0.0 0.0
10:05 16.7 13.2 80 1015.2 5.4 SW 7.6 0.0 0.0
10:06 16.7 13.2 80 1015.2 4.5 E 7.6 0.0 0.0
10:07 16.7 13.2 80 1015.1 4.5 E 7.6 0.0 0.0
10:08 16.8 13.3 80 1015.2 6.9 S 7.6 0.0 0.0
10:09 16.8 13.3 80 1015.2 5.4 SE 7.6 0.0 0.0
10:20 17.3 13.8 80 1015.1 6.0 W 7.6 0.0 0.0
10:45 17.5 12.8 74 1014.8 4.5 SW 7.6 0.0 0.0
11:06 17.6 12.3 71 1014.4 4.5 S 7.6 0.0 0.0
11:07 17.6 12.1 70 1014.2 4.5 SW 7.6 0.0 0.0
11:39 18.5 11.3 63 1014.2 6.9 S 7.6 0.0 0.0
11:40 18.5 11.3 63 1014.4 6.9 S 7.6 0.0 0.0
11:41 18.6 11.4 63 1014.2 3.8 W 7.6 0.0 0.0
11:42 18.7 11.5 63 1014.3 5.4 SW 7.6 0.0 0.0
11:43 18.8 11.6 63 1014.3 4.5 SW 7.6 0.0 0.0
17:51 17.3 11.8 70 1011.3 7.6 W 7.6 0.0 0.0
17:52 17.2 11.7 70 1011.5 6.9 SW 7.6 0.0 0.0
17:53 17.2 11.7 70 1011.4 6.0 W 7.6 0.0 0.0
17:54 17.2 11.7 70 1011.6 6.9 SW 7.6 0.0 0.0
17:55 17.2 11.7 70 1011.6 6.9 SW 7.6 0.0 0.0
18:33 16.1 10.4 69 1011.2 3.8 SW 7.6 0.0 0.0
18:34 16.1 10.4 69 1011.1 3.8 SW 7.6 0.0 0.0
18:38 16.0 10.3 69 1011.4 7.6 SW 7.6 0.0 0.0
18:39 16.0 10.3 69 1011.3 6.9 SW 7.6 0.0 0.0
18:40 16.0 10.3 69 1011.3 4.5 SW 7.6 0.0 0.0
18:41 16.0 10.3 69 1011.3 4.5 SW 7.6 0.0 0.0
18:42 15.9 10.2 69 1011.4 4.5 W 7.6 0.0 0.0
18:43 15.9 10.2 69 1011.2 4.5 W 7.6 0.0 0.0
18:44 15.9 10.2 69 1011.3 4.5 W 7.6 0.0 0.0
18:45 15.9 10.2 69 1011.1 4.5 W 7.6 0.0 0.0
18:46 15.9 10.2 69 1011.2 5.4 SW 7.6 0.0 0.0
18:47 15.9 10.2 69 1011.0 5.4 SW 7.6 0.0 0.0
18:54 15.8 10.3 70 1011.1 7.6 W 7.6 0.0 0.0
18:55 15.8 10.3 70 1011.0 7.6 W 7.6 0.0 0.0
18:56 15.8 10.3 70 1011.0 7.6 W 7.6 0.0 0.0
18:57 15.8 10.3 70 1010.9 7.6 W 7.6 0.0 0.0
18:58 15.8 10.3 70 1011.2 7.6 W 7.6 0.0 0.0
18:59 15.7 10.3 70 1011.0 6.9 SW 7.6 0.0 0.0
19:00 15.7 10.3 70 1011.1 6.9 SW 7.6 0.0 0.0
19:01 15.7 10.3 70 1011.0 6.9 SW 7.6 0.0 0.0
19:02 15.7 10.3 70 1011.1 6.9 SW 7.6 0.0 0.0
19:03 15.7 10.3 70 1011.1 6.9 SW 7.6 0.0 0.0
19:04 15.7 10.3 70 1011.0 6.9 SW 7.6 0.0 0.0
19:05 15.7 10.3 70 1010.7 6.9 SW 7.6 0.0 0.0
19:06 15.7 10.3 70 1010.8 6.9 SW 7.6 0.0 0.0
19:07 15.7 10.3 70 1011.1 6.9 SW 7.6 0.0 0.0
20:09 15.0 11.4 79 1011.0 7.6 W 7.6 0.0 0.0
20:10 15.0 11.4 79 1010.7 5.4 SW 7.6 0.0 0.0
20:11 15.0 11.4 79 1010.5 4.5 SW 7.6 0.0 0.0
20:12 15.0 11.4 79 1010.9 6.9 W 7.6 0.0 0.0
20:13 15.0 11.4 79 1010.7 5.4 SW 7.6 0.0 0.0
20:14 15.0 11.4 79 1010.9 7.6 W 7.6 0.0 0.0
20:15 15.0 11.4 79 1010.9 7.6 W 7.6 0.0 0.0
20:16 14.9 11.5 80 1010.7 6.9 W 7.6 0.0 0.0
20:17 14.9 11.5 80 1011.0 6.9 W 7.6 0.0 0.0
20:18 14.9 11.5 80 1010.7 6.9 W 7.6 0.0 0.0
20:19 14.9 11.5 80 1010.7 6.9 W 7.6 0.0 0.0
20:20 14.9 11.5 80 1010.7 6.0 W 7.6 0.0 0.0
20:21 14.9 11.5 80 1010.7 4.5 W 7.6 0.0 0.0
20:22 14.9 11.5 80 1010.7 4.5 SW 7.6 0.0 0.0
20:50 14.6 11.6 82 1010.5 6.9 SW 7.6 0.0 0.0
20:51 14.5 11.5 82 1010.6 6.0 W 7.6 0.0 0.0
20:52 14.5 11.5 82 1010.5 6.0 W 7.6 0.0 0.0
20:53 14.5 11.5 82 1010.4 3.1 W 7.6 0.0 0.0
20:54 14.5 11.5 82 1010.8 6.9 NW 7.6 0.0 0.0
21:25 14.1 11.4 84 1010.5 7.6 NW 7.6 0.0 0.0
21:26 14.1 11.4 84 1010.3 7.6 SW 7.6 0.0 0.0
21:27 14.1 11.4 84 1010.4 4.5 W 7.6 0.0 0.0
21:28 14.1 11.4 84 1010.5 4.5 W 7.6 0.0 0.0
21:29 14.1 11.4 84 1010.5 6.9 SW 7.6 0.0 0.0
21:30 14.1 11.4 84 1010.5 4.5 W 7.6 0.0 0.0
21:31 14.1 11.4 84 1010.4 4.5 W 7.6 0.0 0.0
21:32 14.1 11.4 84 1010.4 3.8 W 7.6 0.0 0.0
21:33 14.1 11.4 84 1010.3 3.1 SW 7.6 0.0 0.0
21:34 14.0 11.3 84 1010.4 4.5 W 7.6 0.0 0.0
21:35 14.0 11.3 84 1010.5 6.0 SW 7.6 0.0 0.0
22:04 13.8 11.3 85 1010.4 5.4 W 7.6 0.0 0.0
22:05 13.8 11.3 85 1010.1 3.8 W 7.6 0.0 0.0
22:06 13.8 11.3 85 1010.3 4.5 W 7.6 0.0 0.0
22:07 13.8 11.3 85 1010.4 5.4 W 7.6 0.0 0.0
22:08 13.8 11.3 85 1010.6 5.4 W 7.6 0.0 0.0
22:09 13.8 11.3 85 1010.2 4.5 W 7.6 0.0 0.0
22:10 13.8 11.3 85 1010.5 3.1 W 7.6 0.0 0.0
22:11 13.7 11.2 85 1010.4 3.8 W 7.6 0.0 0.0
22:12 13.7 11.4 86 1010.3 3.8 NW 7.6 0.0 0.0
22:13 13.7 11.4 86 1010.4 4.5 W 7.6 0.0 0.0
23:06 13.2 10.7 85 1010.1 7.6 W 7.6 0.0 0.0
23:07 13.2 10.7 85 1010.1 6.9 NW 7.6 0.0 0.0
23:08 13.2 10.7 85 1010.3 6.9 SW 7.6 0.0 0.0
23:09 13.2 10.7 85 1010.0 6.0 W 7.6 0.0 0.0
23:10 13.1 10.6 85 1010.1 3.8 NW 7.6 0.0 0.0
23:11 13.1 10.6 85 1010.2 5.4 NW 7.6 0.0 0.0
23:12 13.1 10.6 85 1010.2 5.4 NW 7.6 0.0 0.0
23:13 13.1 10.6 85 1010.2 4.5 W 7.6 0.0 0.0
23:14 13.1 10.6 85 1010.2 6.0 W 7.6 0.0 0.0
23:15 13.1 10.6 85 1010.2 6.0 W 7.6 0.0 0.0
23:16 13.1 10.6 85 1009.9 3.1 W 7.6 0.0 0.0
23:17 13.1 10.6 85 1010.0 6.0 W 7.6 0.0 0.0
23:24 13.0 10.5 85 1009.7 7.6 W 7.6 0.0 0.0
23:25 13.0 10.5 85 1009.9 4.5 W 7.6 0.0 0.0
23:26 12.9 10.4 85 1010.0 4.5 SW 7.6 0.0 0.0
23:27 12.9 10.4 85 1010.2 4.5 SW 7.6 0.0 0.0
23:28 12.9 10.4 85 1010.0 6.0 NW 7.6 0.0 0.0
23:30 12.9 10.4 85 1009.9 6.9 W 7.6 0.0 0.0
23:31 12.9 10.4 85 1010.1 4.5 WNW 7.6 0.0 0.0
23:32 12.9 10.6 86 1010.0 5.4 W 7.6 0.0 0.0
23:33 12.9 10.6 86 1010.1 6.0 SW 7.6 0.0 0.0
23:43 12.8 10.5 86 1010.0 7.6 NW 7.6 0.0 0.0
23:44 12.8 10.5 86 1009.8 6.9 W 7.6 0.0 0.0
23:45 12.8 10.5 86 1010.0 6.9 W 7.6 0.0 0.0
23:46 12.7 10.4 86 1010.0 6.0 NW 7.6 0.0 0.0
23:47 12.7 10.4 86 1010.2 6.9 SW 7.6 0.0 0.0
23:48 12.7 10.4 86 1010.1 6.0 SW 7.6 0.0 0.0
23:49 12.7 10.4 86 1010.1 4.5 W 7.6 0.0 0.0
23:50 12.7 10.4 86 1009.9 3.8 W 7.6 0.0 0.0
23:51 12.7 10.4 86 1010.1 7.6 W 7.6 0.0 0.0
23:52 12.7 10.4 86 1009.9 7.6 NW 7.6 0.0 0.0
23:53 12.7 10.4 86 1009.8 4.5 NW 7.6 0.0 0.0
23:54 12.6 10.3 86 1009.9 3.8 W 7.6 0.0 0.0
23:55 12.6 10.3 86 1009.9 6.9 NW 7.6 0.0 0.0
23:56 12.6 10.3 86 1009.9 5.4 NW 7.6 0.0 0.0
23:57 12.6 10.3 86 1010.0 1.6 NW 7.6 0.0 0.0
23:58 12.6 10.3 86 1009.9 3.8 NW 7.6 0.0 0.0
23:59 12.6 10.3 86 1009.9 3.8 NW 7.6 0.0 0.0
07:35 12.6 11.7 94 1016.5 8.3 SW 8.3 0.0 0.0
07:36 12.6 11.7 94 1016.5 8.3 S 8.3 0.0 0.0
08:43 13.9 13.1 95 1016.0 5.4 SW 8.3 0.0 0.0
08:44 14.0 13.2 95 1016.0 6.0 S 8.3 0.0 0.0
08:45 14.0 13.2 95 1016.0 6.0 S 8.3 0.0 0.0
08:46 14.1 13.3 95 1016.0 7.6 S 8.3 0.0 0.0
09:08 14.6 13.7 94 1015.9 8.3 SE 8.3 0.0 0.0
09:20 14.7 13.4 92 1015.8 6.9 SW 8.3 0.0 0.0
09:21 14.7 13.4 92 1015.6 6.9 SW 8.3 0.0 0.0
09:22 14.8 13.5 92 1015.5 6.9 SW 8.3 0.0 0.0
10:22 17.4 13.9 80 1015.1 8.3 S 8.3 0.0 0.0
10:23 17.5 13.4 77 1015.0 7.6 S 8.3 0.0 0.0
10:24 17.4 13.7 79 1015.1 7.6 W 8.3 0.0 0.0
10:25 17.4 13.7 79 1015.0 7.6 S 8.3 0.0 0.0
10:26 17.4 13.7 79 1015.0 7.6 S 8.3 0.0 0.0
10:27 17.3 13.6 79 1015.0 6.0 S 8.3 0.0 0.0
10:28 17.1 13.4 79 1015.2 8.3 S 8.3 0.0 0.0
10:29 17.1 13.4 79 1015.0 8.3 S 8.3 0.0 0.0
10:30 16.9 13.0 78 1015.0 4.5 SW 8.3 0.0 0.0
10:31 16.9 13.0 78 1014.9 8.3 S 8.3 0.0 0.0
10:32 16.9 13.0 78 1015.0 6.9 S 8.3 0.0 0.0
10:33 17.0 13.1 78 1014.9 8.3 SW 8.3 0.0 0.0
10:34 17.1 13.4 79 1015.0 6.9 SW 8.3 0.0 0.0
10:35 17.2 13.5 79 1014.9 7.6 S 8.3 0.0 0.0
10:36 17.2 13.5 79 1015.1 7.6 SW 8.3 0.0 0.0
10:37 17.3 13.6 79 1014.9 6.0 SW 8.3 0.0 0.0
10:38 17.3 13.6 79 1014.8 6.9 SW 8.3 0.0 0.0
10:39 17.3 13.6 79 1014.8 6.0 SW 8.3 0.0 0.0
10:40 17.3 13.4 78 1014.7 6.0 SW 8.3 0.0 0.0
10:41 17.4 13.5 78 1014.8 6.9 SW 8.3 0.0 0.0
10:42 17.4 13.5 78 1014.8 6.9 SW 8.3 0.0 0.0
10:43 17.4 13.5 78 1014.9 6.0 SW 8.3 0.0 0.0
10:44 17.5 12.8 74 1014.8 6.0 SW 8.3 0.0 0.0
10:55 17.1 13.0 77 1014.5 8.3 SW 8.3 0.0 0.0
10:56 17.2 13.3 78 1014.5 6.9 SW 8.3 0.0 0.0
10:57 17.2 13.1 77 1014.5 6.0 S 8.3 0.0 0.0
10:58 17.2 13.1 77 1014.5 5.4 S 8.3 0.0 0.0
10:59 17.1 12.8 76 1014.6 7.6 S 8.3 0.0 0.0
11:00 17.2 12.7 75 1014.6 6.9 S 8.3 0.0 0.0
11:01 17.2 12.7 75 1014.5 6.9 S 8.3 0.0 0.0
11:02 17.2 12.7 75 1014.5 6.9 S 8.3 0.0 0.0
11:03 17.2 12.7 75 1014.5 6.9 S 8.3 0.0 0.0
11:04 17.2 12.7 75 1014.3 6.9 S 8.3 0.0 0.0
11:05 17.2 12.7 75 1014.4 6.9 S 8.3 0.0 0.0
11:34 18.4 11.2 63 1014.3 6.9 S 8.3 0.0 0.0
11:35 18.4 11.0 62 1014.3 6.0 W 8.3 0.0 0.0
11:36 18.4 11.0 62 1014.3 6.0 SW 8.3 0.0 0.0
11:37 18.4 11.0 62 1014.6 7.6 SW 8.3 0.0 0.0
11:38 18.5 11.3 63 1014.5 6.9 S 8.3 0.0 0.0
11:44 18.9 11.7 63 1014.1 8.3 SW 8.3 0.0 0.0
11:45 18.9 11.7 63 1014.3 8.3 SSE 8.3 0.0 0.0
11:46 19.0 11.8 63 1014.4 8.3 S 8.3 0.0 0.0
11:47 19.0 11.6 62 1014.3 8.3 SW 8.3 0.0 0.0
11:48 19.0 11.6 62 1014.3 6.0 S 8.3 0.0 0.0
11:49 19.0 11.6 62 1014.2 5.4 S 8.3 0.0 0.0
11:50 19.0 11.6 62 1014.2 6.0 SW 8.3 0.0 0.0
11:51 19.0 11.6 62 1014.3 6.9 SW 8.3 0.0 0.0
11:52 19.0 11.6 62 1014.4 6.9 SW 8.3 0.0 0.0
11:53 19.0 11.6 62 1014.3 8.3 S 8.3 0.0 0.0
11:54 19.0 11.3 61 1014.2 8.3 SW 8.3 0.0 0.0
12:07 18.9 11.0 60 1014.1 8.3 S 8.3 0.0 0.0
12:08 18.9 11.0 60 1014.2 7.6 SW 8.3 0.0 0.0
12:09 18.9 11.0 60 1014.0 7.6 SW 8.3 0.0 0.0
12:10 18.8 10.6 59 1014.1 6.0 S 8.3 0.0 0.0
12:11 18.8 10.9 60 1013.8 6.9 SE 8.3 0.0 0.0
12:33 19.1 11.2 60 1013.8 6.0 W 8.3 0.0 0.0
12:34 19.2 11.5 61 1013.7 6.9 SE 8.3 0.0 0.0
12:54 19.4 11.4 60 1013.6 6.9 SW 8.3 0.0 0.0
12:55 19.4 11.4 60 1013.7 6.9 S 8.3 0.0 0.0
16:44 18.3 10.9 62 1012.2 7.6 S 8.3 0.0 0.0
17:08 17.9 10.5 62 1012.0 6.9 SW 8.3 0.0 0.0
17:09 17.9 10.5 62 1011.9 6.9 W 8.3 0.0 0.0
17:10 17.8 10.2 61 1011.9 5.4 W 8.3 0.0 0.0
17:11 17.8 10.4 62 1012.0 5.4 SW 8.3 0.0 0.0
17:35 17.2 11.7 70 1011.9 8.3 W 8.3 0.0 0.0
17:36 17.2 11.7 70 1011.8 6.0 SW 8.3 0.0 0.0
17:37 17.2 11.7 70 1011.8 6.0 SW 8.3 0.0 0.0
17:38 17.2 11.7 70 1011.6 6.0 W 8.3 0.0 0.0
17:39 17.2 11.7 70 1011.6 6.0 W 8.3 0.0 0.0
17:40 17.3 11.8 70 1011.6 6.9 W 8.3 0.0 0.0
17:41 17.3 11.8 70 1011.6 6.9 SW 8.3 0.0 0.0
17:42 17.3 11.8 70 1011.8 6.9 SW 8.3 0.0 0.0
17:43 17.3 11.8 70 1011.5 6.9 SW 8.3 0.0 0.0
17:44 17.3 11.8 70 1011.5 4.5 W 8.3 0.0 0.0
17:45 17.3 12.0 71 1011.6 4.5 SW 8.3 0.0 0.0
17:56 17.1 11.6 70 1011.4 8.3 W 8.3 0.0 0.0
17:57 17.1 11.6 70 1011.3 6.9 SW 8.3 0.0 0.0
17:58 17.1 11.4 69 1011.4 6.9 SW 8.3 0.0 0.0
17:59 17.1 11.4 69 1011.3 6.9 SW 8.3 0.0 0.0
18:00 17.0 11.3 69 1011.5 6.0 W 8.3 0.0 0.0
18:01 17.0 11.3 69 1011.6 6.0 W 8.3 0.0 0.0
18:02 17.0 11.3 69 1011.2 6.0 W 8.3 0.0 0.0
18:03 17.0 11.3 69 1011.5 6.0 W 8.3 0.0 0.0
18:04 17.0 11.3 69 1011.5 6.0 W 8.3 0.0 0.0
18:05 17.0 11.3 69 1011.3 6.0 W 8.3 0.0 0.0
18:06 16.9 11.2 69 1011.3 8.3 SW 8.3 0.0 0.0
18:07 16.9 11.2 69 1011.4 8.3 SW 8.3 0.0 0.0
18:08 16.9 11.2 69 1011.4 8.3 SW 8.3 0.0 0.0
18:09 16.9 11.2 69 1011.5 8.3 SW 8.3 0.0 0.0
18:10 16.7 11.0 69 1011.3 8.3 SW 8.3 0.0 0.0
18:11 16.7 11.0 69 1011.3 8.3 SW 8.3 0.0 0.0
18:23 16.2 10.3 68 1011.3 7.6 SW 8.3 0.0 0.0
18:24 16.2 10.3 68 1011.2 7.6 SW 8.3 0.0 0.0
18:25 16.2 10.3 68 1011.2 4.5 SW 8.3 0.0 0.0
18:26 16.2 10.5 69 1011.2 5.4 WSW 8.3 0.0 0.0
18:27 16.2 10.5 69 1011.5 5.4 WSW 8.3 0.0 0.0
18:28 16.1 10.4 69 1011.3 3.8 W 8.3 0.0 0.0
18:29 16.1 10.4 69 1011.2 3.8 W 8.3 0.0 0.0
18:30 16.1 10.4 69 1011.3 6.0 W 8.3 0.0 0.0
18:31 16.1 10.4 69 1011.2 6.0 W 8.3 0.0 0.0
18:32 16.1 10.4 69 1011.2 6.0 W 8.3 0.0 0.0
19:23 15.5 10.7 73 1010.9 8.3 W 8.3 0.0 0.0
19:24 15.5 10.7 73 1010.9 4.5 SW 8.3 0.0 0.0
19:25 15.5 10.7 73 1011.0 4.5 SW 8.3 0.0 0.0
19:26 15.4 10.8 74 1010.9 5.4 SW 8.3 0.0 0.0
19:27 15.4 10.8 74 1011.0 7.6 W 8.3 0.0 0.0
19:28 15.4 10.8 74 1010.9 7.6 W 8.3 0.0 0.0
19:29 15.4 10.8 74 1010.9 6.0 W 8.3 0.0 0.0
19:30 15.4 10.8 74 1010.7 8.3 W 8.3 0.0 0.0
19:31 15.4 10.8 74 1010.9 8.3 W 8.3 0.0 0.0
19:32 15.4 10.8 74 1010.9 5.4 NW 8.3 0.0 0.0
19:33 15.4 10.8 74 1010.7 5.4 NW 8.3 0.0 0.0
19:34 15.4 10.8 74 1011.0 5.4 NW 8.3 0.0 0.0
19:35 15.3 10.9 75 1010.9 5.4 SW 8.3 0.0 0.0
19:36 15.3 10.9 75 1011.0 5.4 SW 8.3 0.0 0.0
19:37 15.3 10.9 75 1010.8 5.4 SW 8.3 0.0 0.0
19:38 15.3 10.9 75 1010.9 5.4 SW 8.3 0.0 0.0
19:39 15.3 11.1 76 1010.7 4.5 W 8.3 0.0 0.0
19:40 15.3 11.1 76 1010.8 6.0 SW 8.3 0.0 0.0
19:41 15.3 11.1 76 1011.0 6.0 SW 8.3 0.0 0.0
20:23 14.9 11.5 80 1010.8 8.3 W 8.3 0.0 0.0
20:35 14.8 11.6 81 1010.8 8.3 W 8.3 0.0 0.0
20:36 14.7 11.5 81 1010.5 8.3 W 8.3 0.0 0.0
20:37 14.7 11.5 81 1010.5 8.3 SW 8.3 0.0 0.0
20:38 14.7 11.5 81 1010.6 7.6 W 8.3 0.0 0.0
20:39 14.7 11.5 81 1010.7 7.6 W 8.3 0.0 0.0
20:40 14.7 11.5 81 1010.6 7.6 WSW 8.3 0.0 0.0
20:41 14.6 11.4 81 1010.7 7.6 SW 8.3 0.0 0.0
20:42 14.6 11.4 81 1010.7 6.9 W 8.3 0.0 0.0
20:43 14.6 11.4 81 1010.8 4.5 W 8.3 0.0 0.0
20:44 14.6 11.4 81 1010.8 4.5 SW 8.3 0.0 0.0
20:45 14.6 11.4 81 1010.6 3.1 W 8.3 0.0 0.0
20:46 14.6 11.6 82 1010.6 7.6 W 8.3 0.0 0.0
20:47 14.6 11.6 82 1010.6 5.4 WNW 8.3 0.0 0.0
20:48 14.6 11.6 82 1010.6 5.4 SW 8.3 0.0 0.0
20:49 14.6 11.6 82 1010.7 5.4 WNW 8.3 0.0 0.0
07:37 12.6 11.7 94 1016.4 9.2 S 9.2 0.0 0.0
07:49 12.7 11.8 94 1016.4 6.0 SW 9.2 0.0 0.0
07:50 12.7 11.8 94 1016.2 7.6 S 9.2 0.0 0.0
07:51 12.8 11.9 94 1016.5 6.9 S 9.2 0.0 0.0
07:52 12.8 11.9 94 1016.3 7.6 S 9.2 0.0 0.0
07:53 12.8 11.9 94 1016.2 6.0 SW 9.2 0.0 0.0
07:54 12.8 11.9 94 1016.2 6.9 S 9.2 0.0 0.0
07:55 12.8 11.9 94 1016.1 5.4 S 9.2 0.0 0.0
07:56 12.8 11.9 94 1016.3 5.4 S 9.2 0.0 0.0
07:57 12.9 12.1 95 1016.3 6.9 S 9.2 0.0 0.0
07:58 12.9 12.1 95 1016.2 6.9 S 9.2 0.0 0.0
08:12 13.2 12.4 95 1016.2 9.2 S 9.2 0.0 0.0
08:13 13.2 12.4 95 1016.0 9.2 S 9.2 0.0 0.0
08:14 13.2 12.4 95 1016.0 7.6 SSW 9.2 0.0 0.0
08:15 13.2 12.4 95 1016.2 8.3 S 9.2 0.0 0.0
08:16 13.2 12.4 95 1016.2 8.3 S 9.2 0.0 0.0
08:17 13.3 12.5 95 1016.2 8.3 S 9.2 0.0 0.0
08:18 13.3 12.5 95 1016.1 9.2 S 9.2 0.0 0.0
08:19 13.3 12.5 95 1015.9 9.2 SW 9.2 0.0 0.0
08:20 13.3 12.5 95 1016.2 7.6 S 9.2 0.0 0.0
08:21 13.3 12.5 95 1016.1 6.0 SW 9.2 0.0 0.0
08:36 13.5 12.7 95 1016.0 8.3 SW 9.2 0.0 0.0
08:37 13.6 12.8 95 1016.0 7.6 SW 9.2 0.0 0.0
08:38 13.6 12.8 95 1016.1 6.0 SW 9.2 0.0 0.0
08:39 13.7 12.9 95 1015.9 5.4 S 9.2 0.0 0.0
08:40 13.8 13.0 95 1016.0 6.9 S 9.2 0.0 0.0
08:41 13.8 13.0 95 1016.0 6.0 S 9.2 0.0 0.0
08:42 13.9 13.1 95 1016.2 5.4 SW 9.2 0.0 0.0
09:09 14.6 13.7 94 1015.9 9.2 E 9.2 0.0 0.0
09:10 14.6 13.7 94 1015.6 7.6 S 9.2 0.0 0.0
09:11 14.6 13.7 94 1015.8 7.6 SSE 9.2 0.0 0.0
09:12 14.5 13.6 94 1015.8 7.6 S 9.2 0.0 0.0
09:13 14.5 13.6 94 1015.6 6.9 S 9.2 0.0 0.0
09:14 14.6 13.5 93 1015.8 5.4 S 9.2 0.0 0.0
09:15 14.6 13.5 93 1015.7 5.4 S 9.2 0.0 0.0
09:16 14.6 13.5 93 1015.6 8.3 S 9.2 0.0 0.0
09:17 14.6 13.5 93 1015.8 7.6 S 9.2 0.0 0.0
09:18 14.6 13.5 93 1015.6 6.9 SW 9.2 0.0 0.0
09:19 14.7 13.6 93 1015.8 6.9 S 9.2 0.0 0.0
09:23 14.8 13.5 92 1015.7 9.2 S 9.2 0.0 0.0
09:25 14.9 13.5 91 1015.5 7.6 SE 9.2 0.0 0.0
09:26 14.9 13.3 90 1015.4 5.4 S 9.2 0.0 0.0
09:27 15.0 13.4 90 1015.6 6.0 SW 9.2 0.0 0.0
09:28 15.0 13.4 90 1015.5 6.9 SW 9.2 0.0 0.0
09:29 15.0 13.4 90 1015.5 7.6 ESE 9.2 0.0 0.0
09:30 15.1 13.3 89 1015.5 6.0 S 9.2 0.0 0.0
09:31 15.1 13.3 89 1015.5 5.4 S 9.2 0.0 0.0
09:32 15.1 13.3 89 1015.7 5.4 S 9.2 0.0 0.0
10:10 16.9 13.2 79 1015.0 9.2 SW 9.2 0.0 0.0
10:11 16.9 13.2 79 1015.1 7.6 S 9.2 0.0 0.0
10:12 17.0 13.3 79 1015.2 4.5 SW 9.2 0.0 0.0
10:13 17.0 13.3 79 1014.9 6.9 SW 9.2 0.0 0.0
10:14 17.0 13.3 79 1015.0 6.9 S 9.2 0.0 0.0
10:15 17.1 13.4 79 1015.2 6.9 SSE 9.2 0.0 0.0
10:16 17.1 13.4 79 1014.9 6.9 SW 9.2 0.0 0.0
10:17 17.1 13.4 79 1015.0 6.0 SW 9.2 0.0 0.0
10:18 17.2 13.5 79 1015.2 6.9 SW 9.2 0.0 0.0
10:19 17.3 13.8 80 1015.1 6.0 S 9.2 0.0 0.0
11:08 17.7 12.2 70 1014.3 9.2 SW 9.2 0.0 0.0
11:09 17.8 12.3 70 1014.5 8.3 SW 9.2 0.0 0.0
11:10 17.8 12.3 70 1014.2 5.4 SW 9.2 0.0 0.0
11:11 17.8 12.3 70 1014.4 5.4 SW 9.2 0.0 0.0
11:12 17.8 12.3 70 1014.5 5.4 SW 9.2 0.0 0.0
11:13 18.0 12.5 70 1014.4 6.9 W 9.2 0.0 0.0
11:14 18.0 12.5 70 1014.5 8.3 S 9.2 0.0 0.0
11:15 18.0 12.5 70 1014.4 8.3 SW 9.2 0.0 0.0
11:16 18.1 12.3 69 1014.5 6.0 SW 9.2 0.0 0.0
11:17 18.1 12.3 69 1014.5 8.3 S 9.2 0.0 0.0
11:55 19.0 11.3 61 1014.2 9.2 SW 9.2 0.0 0.0
11:56 19.0 11.3 61 1014.1 9.2 SW 9.2 0.0 0.0
11:57 19.0 11.3 61 1014.2 6.9 SSW 9.2 0.0 0.0
11:58 18.9 11.2 61 1014.4 6.0 S 9.2 0.0 0.0
11:59 18.9 11.2 61 1014.2 3.8 S 9.2 0.0 0.0
12:00 18.9 11.2 61 1014.0 2.2 SW 9.2 0.0 0.0
12:01 18.9 11.2 61 1014.0 2.2 SW 9.2 0.0 0.0
12:02 18.9 11.2 61 1014.2 2.2 SW 9.2 0.0 0.0
12:03 18.9 11.2 61 1014.0 2.2 SW 9.2 0.0 0.0
12:04 18.9 11.2 61 1014.2 2.2 SW 9.2 0.0 0.0
12:05 18.9 11.2 61 1014.1 2.2 SW 9.2 0.0 0.0
12:06 18.9 11.2 61 1014.2 7.6 S 9.2 0.0 0.0
12:35 19.2 11.3 60 1013.9 8.3 SW 9.2 0.0 0.0
12:36 19.2 11.5 61 1013.6 7.6 S 9.2 0.0 0.0
12:37 19.3 11.4 60 1013.7 6.9 S 9.2 0.0 0.0
12:38 19.3 11.4 60 1013.7 7.6 W 9.2 0.0 0.0
12:39 19.3 11.4 60 1013.7 7.6 SW 9.2 0.0 0.0
12:40 19.3 11.6 61 1013.9 9.2 SW 9.2 0.0 0.0
12:41 19.3 11.6 61 1013.8 8.3 S 9.2 0.0 0.0
12:42 19.3 11.1 59 1013.6 6.0 S 9.2 0.0 0.0
12:43 19.3 11.1 59 1013.6 6.0 S 9.2 0.0 0.0
12:44 19.2 11.3 60 1013.8 9.2 SW 9.2 0.0 0.0
12:45 19.2 11.3 60 1013.8 7.6 SW 9.2 0.0 0.0
12:46 19.3 11.6 61 1013.8 6.9 S 9.2 0.0 0.0
12:47 19.3 11.6 61 1013.6 7.6 SW 9.2 0.0 0.0
12:48 19.4 11.7 61 1013.7 7.6 S 9.2 0.0 0.0
12:49 19.4 11.4 60 1014.0 8.3 S 9.2 0.0 0.0
12:50 19.4 11.4 60 1013.7 6.9 SW 9.2 0.0 0.0
12:51 19.4 11.4 60 1013.8 8.3 SW 9.2 0.0 0.0
12:52 19.4 11.4 60 1013.7 7.6 S 9.2 0.0 0.0
12:53 19.4 11.4 60 1013.7 7.6 S 9.2 0.0 0.0
15:16 18.5 11.3 63 1013.1 6.9 S 9.2 0.0 0.0
15:17 18.5 11.3 63 1012.6 7.6 SW 9.2 0.0 0.0
15:18 18.6 11.9 65 1012.9 7.6 SW 9.2 0.0 0.0
15:19 18.6 11.7 64 1013.0 8.3 SW 9.2 0.0 0.0
15:20 18.6 11.7 64 1013.2 9.2 S 9.2 0.0 0.0
15:55 19.0 11.3 61 1012.7 8.3 SW 9.2 0.0 0.0
15:56 19.0 11.3 61 1012.8 7.6 W 9.2 0.0 0.0
16:22 19.3 11.8 62 1012.4 8.3 SW 9.2 0.0 0.0
16:37 18.4 10.8 61 1012.0 6.9 S 9.2 0.0 0.0
16:38 18.3 10.7 61 1012.2 6.9 SW 9.2 0.0 0.0
16:39 18.3 10.7 61 1012.3 6.9 S 9.2 0.0 0.0
16:40 18.2 10.8 62 1012.3 6.9 SSE 9.2 0.0 0.0
16:41 18.2 10.8 62 1012.1 6.9 S 9.2 0.0 0.0
16:42 18.2 10.8 62 1012.2 6.0 SW 9.2 0.0 0.0
16:43 18.3 10.9 62 1012.3 6.9 SW 9.2 0.0 0.0
16:59 17.7 10.3 62 1012.0 6.9 SW 9.2 0.0 0.0
17:00 17.7 10.6 63 1012.2 6.0 WNW 9.2 0.0 0.0
17:01 17.7 10.6 63 1012.0 6.0 WNW 9.2 0.0 0.0
17:02 17.7 10.6 63 1012.1 6.0 WNW 9.2 0.0 0.0
17:03 17.7 10.6 63 1011.9 6.0 WNW 9.2 0.0 0.0
17:05 17.7 10.6 63 1011.7 6.0 WNW 9.2 0.0 0.0
17:06 17.9 10.5 62 1011.9 6.9 NW 9.2 0.0 0.0
17:07 17.9 10.5 62 1012.1 6.0 W 9.2 0.0 0.0
17:12 17.8 10.4 62 1012.0 9.2 SW 9.2 0.0 0.0
17:13 17.8 10.4 62 1011.8 9.2 SW 9.2 0.0 0.0
17:14 17.8 10.4 62 1011.7 7.6 SW 9.2 0.0 0.0
17:15 17.8 10.4 62 1011.7 7.6 SW 9.2 0.0 0.0
17:16 17.8 10.4 62 1011.6 7.6 SW 9.2 0.0 0.0
17:17 17.7 10.6 63 1011.8 5.4 SW 9.2 0.0 0.0
17:18 17.6 10.5 63 1011.9 7.6 W 9.2 0.0 0.0
17:19 17.6 10.7 64 1012.0 6.9 SW 9.2 0.0 0.0
17:20 17.6 10.7 64 1011.9 6.9 SW 9.2 0.0 0.0
17:21 17.5 10.6 64 1011.7 6.9 SW 9.2 0.0 0.0
17:22 17.5 10.6 64 1011.7 6.9 SW 9.2 0.0 0.0
17:33 17.2 11.5 69 1011.7 6.9 S 9.2 0.0 0.0
17:34 17.2 11.7 70 1012.0 8.3 SW 9.2 0.0 0.0
18:12 16.6 10.9 69 1011.6 9.2 SW 9.2 0.0 0.0
18:13 16.6 10.9 69 1011.5 9.2 SW 9.2 0.0 0.0
18:14 16.5 10.6 68 1011.4 7.6 SW 9.2 0.0 0.0
18:15 16.5 10.6 68 1011.3 7.6 SW 9.2 0.0 0.0
18:16 16.5 10.6 68 1011.2 6.0 SW 9.2 0.0 0.0
18:17 16.4 10.5 68 1011.5 6.9 NW 9.2 0.0 0.0
18:18 16.4 10.5 68 1011.4 6.9 NW 9.2 0.0 0.0
18:19 16.3 10.4 68 1011.2 6.9 SW 9.2 0.0 0.0
18:20 16.3 10.4 68 1011.5 6.9 SW 9.2 0.0 0.0
18:21 16.3 10.4 68 1011.3 6.9 SW 9.2 0.0 0.0
18:22 16.3 10.4 68 1011.2 8.3 W 9.2 0.0 0.0
20:25 14.9 11.5 80 1010.5 4.5 W 9.2 0.0 0.0
20:26 14.8 11.4 80 1010.7 6.9 WSW 9.2 0.0 0.0
20:27 14.8 11.4 80 1010.6 6.9 SW 9.2 0.0 0.0
20:28 14.8 11.4 80 1010.6 6.9 SW 9.2 0.0 0.0
20:29 14.8 11.4 80 1010.7 6.9 SW 9.2 0.0 0.0
20:30 14.8 11.4 80 1010.7 8.3 SW 9.2 0.0 0.0
20:31 14.8 11.4 80 1010.6 5.4 W 9.2 0.0 0.0
20:32 14.8 11.4 80 1010.4 6.0 NW 9.2 0.0 0.0
20:33 14.8 11.6 81 1010.6 6.0 W 9.2 0.0 0.0
20:34 14.8 11.6 81 1010.8 8.3 W 9.2 0.0 0.0
20:55 14.5 11.5 82 1010.6 9.2 W 9.2 0.0 0.0
20:56 14.5 11.5 82 1010.4 5.4 W 9.2 0.0 0.0
20:57 14.5 11.5 82 1010.6 5.4 W 9.2 0.0 0.0
20:58 14.4 11.4 82 1010.7 5.4 SW 9.2 0.0 0.0
20:59 14.4 11.4 82 1010.4 5.4 SW 9.2 0.0 0.0
21:00 14.4 11.6 83 1010.4 4.5 W 9.2 0.0 0.0
21:01 14.4 11.6 83 1010.6 4.5 W 9.2 0.0 0.0
21:03 14.4 11.6 83 1010.5 4.5 W 9.2 0.0 0.0
21:04 14.4 11.6 83 1010.5 4.5 W 9.2 0.0 0.0
21:05 14.4 11.6 83 1010.3 4.5 W 9.2 0.0 0.0
07:38 12.6 11.7 94 1016.5 8.3 SW 9.8 0.0 0.0
07:39 12.6 11.7 94 1016.6 9.2 S 9.8 0.0 0.0
07:40 12.6 11.7 94 1016.3 7.6 SSW 9.8 0.0 0.0
07:41 12.6 11.7 94 1016.5 7.6 S 9.8 0.0 0.0
07:42 12.6 11.7 94 1016.5 9.2 SE 9.8 0.0 0.0
07:43 12.6 11.7 94 1016.3 9.2 S 9.8 0.0 0.0
07:44 12.6 11.7 94 1016.5 9.2 S 9.8 0.0 0.0
07:45 12.6 11.7 94 1016.3 9.2 S 9.8 0.0 0.0
07:46 12.7 11.8 94 1016.3 4.5 S 9.8 0.0 0.0
07:47 12.7 11.8 94 1016.5 5.4 SSW 9.8 0.0 0.0
07:48 12.7 11.8 94 1016.3 9.2 SE 9.8 0.0 0.0
08:22 13.3 12.5 95 1016.1 9.8 S 9.8 0.0 0.0
08:33 13.5 12.7 95 1016.0 9.2 SE 9.8 0.0 0.0
08:34 13.5 12.7 95 1016.3 6.0 S 9.8 0.0 0.0
08:35 13.5 12.7 95 1016.0 8.3 SW 9.8 0.0 0.0
12:23 19.1 11.2 60 1013.6 7.6 SW 9.8 0.0 0.0
12:24 19.1 11.4 61 1013.8 6.9 S 9.8 0.0 0.0
12:25 19.1 11.4 61 1013.9 6.0 SW 9.8 0.0 0.0
12:26 19.1 11.4 61 1013.6 8.3 S 9.8 0.0 0.0
12:27 19.1 11.4 61 1013.6 8.3 S 9.8 0.0 0.0
12:28 19.1 11.4 61 1013.8 8.3 S 9.8 0.0 0.0
12:29 19.1 11.2 60 1013.7 8.3 SSW 9.8 0.0 0.0
12:30 19.1 11.2 60 1013.7 8.3 SSW 9.8 0.0 0.0
12:31 19.2 11.5 61 1013.7 6.9 SW 9.8 0.0 0.0
12:32 19.1 11.2 60 1013.6 5.4 SW 9.8 0.0 0.0
13:07 19.3 11.1 59 1013.6 9.2 S 9.8 0.0 0.0
13:08 19.3 11.1 59 1013.8 6.9 SW 9.8 0.0 0.0
13:09 19.3 11.1 59 1013.6 8.3 SW 9.8 0.0 0.0
13:10 19.3 11.1 59 1013.7 9.8 SW 9.8 0.0 0.0
13:11 19.3 11.4 60 1013.5 7.6 S 9.8 0.0 0.0
13:12 19.3 11.1 59 1013.6 8.3 W 9.8 0.0 0.0
13:13 19.3 11.4 60 1013.6 8.3 SW 9.8 0.0 0.0
15:21 18.6 11.2 62 1013.0 9.8 S 9.8 0.0 0.0
15:22 18.4 11.0 62 1012.9 7.6 W 9.8 0.0 0.0
15:23 18.3 11.1 63 1013.0 8.3 SSW 9.8 0.0 0.0
15:24 18.3 11.1 63 1013.1 8.3 W 9.8 0.0 0.0
15:25 18.2 11.3 64 1013.1 7.6 SW 9.8 0.0 0.0
15:26 18.2 11.3 64 1012.9 9.8 SW 9.8 0.0 0.0
15:27 18.2 11.5 65 1013.0 9.8 S 9.8 0.0 0.0
15:28 18.2 11.5 65 1013.1 9.8 S 9.8 0.0 0.0
15:29 18.2 11.5 65 1013.1 9.8 S 9.8 0.0 0.0
15:30 18.2 11.5 65 1012.9 9.2 SE 9.8 0.0 0.0
15:31 18.2 11.5 65 1012.9 9.8 SE 9.8 0.0 0.0
15:32 18.2 11.5 65 1012.9 8.3 SW 9.8 0.0 0.0
15:33 18.2 11.5 65 1012.9 7.6 S 9.8 0.0 0.0
15:34 18.2 11.3 64 1013.2 9.8 SW 9.8 0.0 0.0
15:35 18.2 11.0 63 1012.9 9.2 SW 9.8 0.0 0.0
15:36 18.2 11.3 64 1013.0 6.9 SW 9.8 0.0 0.0
15:37 18.3 11.6 65 1012.8 8.3 SW 9.8 0.0 0.0
15:38 18.5 11.8 65 1012.9 9.2 W 9.8 0.0 0.0
15:39 18.5 11.6 64 1013.0 9.8 NW 9.8 0.0 0.0
15:57 19.0 11.3 61 1012.8 9.8 S 9.8 0.0 0.0
15:58 19.0 11.1 60 1012.7 6.9 SW 9.8 0.0 0.0
15:59 19.0 11.1 60 1012.7 6.9 SW 9.8 0.0 0.0
16:00 19.0 11.1 60 1012.5 6.9 SE 9.8 0.0 0.0
16:01 19.0 11.1 60 1012.4 6.9 SE 9.8 0.0 0.0
16:02 19.0 11.1 60 1012.8 6.9 SE 9.8 0.0 0.0
16:03 18.9 11.0 60 1012.6 8.3 SW 9.8 0.0 0.0
16:04 18.8 11.1 61 1012.6 7.6 S 9.8 0.0 0.0
16:05 18.8 11.4 62 1012.6 7.6 SW 9.8 0.0 0.0
16:06 18.8 11.4 62 1012.4 8.3 W 9.8 0.0 0.0
16:07 18.8 11.1 61 1012.6 9.8 SW 9.8 0.0 0.0
16:08 18.9 11.2 61 1012.7 6.9 SW 9.8 0.0 0.0
16:09 18.9 11.2 61 1012.5 9.8 W 9.8 0.0 0.0
16:10 18.9 11.2 61 1012.5 9.8 SW 9.8 0.0 0.0
16:11 18.9 11.5 62 1012.5 8.3 SW 9.8 0.0 0.0
16:12 18.9 11.5 62 1012.5 6.9 SW 9.8 0.0 0.0
16:13 18.9 11.5 62 1012.3 8.3 SW 9.8 0.0 0.0
16:14 19.1 11.9 63 1012.2 9.2 S 9.8 0.0 0.0
16:15 19.1 11.7 62 1012.5 9.2 S 9.8 0.0 0.0
16:16 19.1 11.7 62 1012.4 8.3 S 9.8 0.0 0.0
16:17 19.1 11.7 62 1012.5 6.9 W 9.8 0.0 0.0
16:18 19.2 11.8 62 1012.3 3.8 S 9.8 0.0 0.0
16:19 19.2 12.0 63 1012.4 8.3 SW 9.8 0.0 0.0
16:20 19.3 11.8 62 1012.4 9.2 SW 9.8 0.0 0.0
16:21 19.3 11.8 62 1012.4 5.4 SW 9.8 0.0 0.0
16:34 18.7 11.0 61 1012.3 8.3 SW 9.8 0.0 0.0
16:35 18.6 10.9 61 1012.3 7.6 SW 9.8 0.0 0.0
16:36 18.5 10.6 60 1012.2 8.3 SW 9.8 0.0 0.0
16:45 18.3 10.9 62 1012.1 9.8 SW 9.8 0.0 0.0
16:46 18.3 10.7 61 1012.0 9.2 W 9.8 0.0 0.0
16:47 18.3 10.7 61 1012.2 7.6 S 9.8 0.0 0.0
16:48 18.2 10.6 61 1012.3 9.8 SW 9.8 0.0 0.0
16:49 18.2 10.6 61 1012.2 9.2 SW 9.8 0.0 0.0
16:50 18.1 10.5 61 1012.3 6.9 W 9.8 0.0 0.0
16:51 18.0 10.4 61 1012.2 8.3 SW 9.8 0.0 0.0
16:52 18.0 10.4 61 1012.3 6.9 SW 9.8 0.0 0.0
16:53 17.9 10.3 61 1012.1 7.6 W 9.8 0.0 0.0
16:54 17.9 10.3 61 1012.1 7.6 S 9.8 0.0 0.0
16:55 17.8 10.4 62 1012.1 7.6 SW 9.8 0.0 0.0
16:56 17.8 10.4 62 1012.0 7.6 W 9.8 0.0 0.0
16:57 17.7 10.3 62 1012.2 6.9 SW 9.8 0.0 0.0
16:58 17.7 10.3 62 1012.1 9.2 SW 9.8 0.0 0.0
17:23 17.4 11.7 69 1011.8 9.8 W 9.8 0.0 0.0
17:24 17.4 11.7 69 1011.7 8.3 SW 9.8 0.0 0.0
17:25 17.4 11.7 69 1011.8 9.2 W 9.8 0.0 0.0
17:26 17.4 11.7 69 1011.6 8.3 W 9.8 0.0 0.0
17:27 17.4 11.7 69 1011.7 8.3 S 9.8 0.0 0.0
17:28 17.3 11.6 69 1011.6 6.0 SW 9.8 0.0 0.0
17:29 17.3 11.6 69 1011.5 8.3 W 9.8 0.0 0.0
17:30 17.2 11.5 69 1011.7 6.0 W 9.8 0.0 0.0
17:31 17.2 11.5 69 1011.6 6.0 W 9.8 0.0 0.0
17:32 17.2 11.5 69 1011.7 6.0 SW 9.8 0.0 0.0
08:23 13.3 12.5 95 1016.1 10.7 S 10.7 0.0 0.0
08:24 13.3 12.5 95 1016.0 9.8 S 10.7 0.0 0.0
08:25 13.3 12.5 95 1016.0 9.8 S 10.7 0.0 0.0
08:26 13.4 12.6 95 1016.2 9.2 S 10.7 0.0 0.0
08:27 13.4 12.6 95 1016.3 9.2 S 10.7 0.0 0.0
08:28 13.4 12.6 95 1016.1 8.3 SSE 10.7 0.0 0.0
08:29 13.4 12.6 95 1016.0 6.0 SW 10.7 0.0 0.0
08:30 13.4 12.6 95 1016.2 8.3 S 10.7 0.0 0.0
08:31 13.4 12.6 95 1016.0 8.3 S 10.7 0.0 0.0
08:32 13.5 12.7 95 1016.1 8.3 S 10.7 0.0 0.0
11:18 18.1 12.3 69 1014.7 10.7 SW 10.7 0.0 0.0
11:19 18.2 12.4 69 1014.5 8.3 SW 10.7 0.0 0.0
11:20 18.2 12.4 69 1014.5 8.3 S 10.7 0.0 0.0
11:21 18.2 12.2 68 1014.5 6.9 SE 10.7 0.0 0.0
11:22 18.2 12.2 68 1014.5 9.2 S 10.7 0.0 0.0
11:23 18.3 12.1 67 1014.6 10.7 S 10.7 0.0 0.0
11:24 18.2 11.8 66 1014.4 7.6 W 10.7 0.0 0.0
11:25 18.2 11.5 65 1014.3 7.6 S 10.7 0.0 0.0
11:26 18.2 11.3 64 1014.4 5.4 SW 10.7 0.0 0.0
11:27 18.2 11.3 64 1014.4 8.3 S 10.7 0.0 0.0
11:28 18.2 11.3 64 1014.5 8.3 SW 10.7 0.0 0.0
11:29 18.2 11.3 64 1014.3 6.0 S 10.7 0.0 0.0
11:30 18.3 11.6 65 1014.3 7.6 S 10.7 0.0 0.0
11:31 18.3 11.6 65 1014.5 6.9 S 10.7 0.0 0.0
11:32 18.4 11.5 64 1014.6 5.4 S 10.7 0.0 0.0
11:33 18.4 11.5 64 1014.6 5.4 S 10.7 0.0 0.0
13:14 19.4 11.2 59 1013.6 10.7 SW 10.7 0.0 0.0
13:15 19.3 11.1 59 1013.4 8.3 SW 10.7 0.0 0.0
13:16 19.3 11.1 59 1013.4 8.3 S 10.7 0.0 0.0
14:07 19.8 12.1 61 1013.2 6.9 S 10.7 0.0 0.0
14:08 19.8 12.1 61 1013.3 10.7 SW 10.7 0.0 0.0
14:09 19.8 12.1 61 1013.4 7.6 SW 10.7 0.0 0.0
14:10 19.9 12.2 61 1013.3 9.8 SE 10.7 0.0 0.0
15:04 18.5 10.8 61 1013.2 10.7 SW 10.7 0.0 0.0
15:05 18.5 10.8 61 1012.9 10.7 SW 10.7 0.0 0.0
15:50 19.0 11.8 63 1012.8 8.3 W 10.7 0.0 0.0
15:51 19.0 11.3 61 1012.9 6.9 W 10.7 0.0 0.0
15:52 19.0 11.3 61 1012.8 6.0 SW 10.7 0.0 0.0
15:53 19.0 11.1 60 1012.6 7.6 SW 10.7 0.0 0.0
15:54 19.0 11.3 61 1012.7 8.3 W 10.7 0.0 0.0
16:33 18.8 11.1 61 1012.4 9.2 SW 10.7 0.0 0.0
12:12 18.8 10.9 60 1013.7 11.4 SW 11.4 0.0 0.0
12:13 18.8 10.9 60 1014.0 9.2 SW 11.4 0.0 0.0
12:14 18.9 11.2 61 1013.9 6.9 S 11.4 0.0 0.0
12:15 18.9 11.0 60 1013.8 6.9 SW 11.4 0.0 0.0
12:16 19.0 11.3 61 1013.7 8.3 S 11.4 0.0 0.0
12:17 19.0 11.1 60 1013.8 8.3 SW 11.4 0.0 0.0
12:18 19.0 11.1 60 1013.9 8.3 SW 11.4 0.0 0.0
12:19 19.0 11.1 60 1013.7 8.3 SW 11.4 0.0 0.0
12:20 19.1 11.4 61 1013.6 8.3 S 11.4 0.0 0.0
12:21 19.1 11.4 61 1013.8 9.8 S 11.4 0.0 0.0
12:22 19.1 11.4 61 1013.8 9.8 SW 11.4 0.0 0.0
13:37 19.7 11.7 60 1013.4 8.3 SW 11.4 0.0 0.0
13:38 19.7 12.0 61 1013.5 11.4 SW 11.4 0.0 0.0
13:39 19.7 11.7 60 1013.5 11.4 SW 11.4 0.0 0.0
13:40 19.6 11.6 60 1013.3 6.0 S 11.4 0.0 0.0
13:41 19.7 12.0 61 1013.5 7.6 SW 11.4 0.0 0.0
13:42 19.7 12.0 61 1013.3 7.6 SW 11.4 0.0 0.0
13:43 19.9 12.7 63 1013.4 10.7 S 11.4 0.0 0.0
13:44 19.9 12.2 61 1013.6 10.7 S 11.4 0.0 0.0
13:45 19.9 11.9 60 1013.2 9.2 S 11.4 0.0 0.0
13:46 19.8 11.6 59 1013.5 10.7 SW 11.4 0.0 0.0
13:58 19.5 11.8 61 1013.4 6.9 W 11.4 0.0 0.0
13:59 19.6 12.1 62 1013.4 8.3 W 11.4 0.0 0.0
14:00 19.7 12.0 61 1013.3 10.7 SW 11.4 0.0 0.0
14:01 19.7 12.0 61 1013.3 10.7 SW 11.4 0.0 0.0
14:02 19.7 12.0 61 1013.5 10.7 SW 11.4 0.0 0.0
14:03 19.7 12.0 61 1013.4 10.7 SW 11.4 0.0 0.0
14:04 19.7 12.0 61 1013.5 10.7 SW 11.4 0.0 0.0
14:05 19.7 12.0 61 1013.4 10.7 SW 11.4 0.0 0.0
14:06 19.8 12.1 61 1013.5 7.6 SSW 11.4 0.0 0.0
14:11 19.9 12.2 61 1013.3 11.4 SW 11.4 0.0 0.0
14:12 19.9 11.9 60 1013.3 9.8 SW 11.4 0.0 0.0
14:13 19.8 11.8 60 1013.3 8.3 S 11.4 0.0 0.0
14:14 19.8 11.8 60 1013.2 10.7 SW 11.4 0.0 0.0
14:15 19.7 12.0 61 1013.4 9.8 SW 11.4 0.0 0.0
14:16 19.7 12.0 61 1013.3 9.2 SW 11.4 0.0 0.0
14:17 19.7 12.2 62 1013.3 6.9 SW 11.4 0.0 0.0
14:18 19.7 11.7 60 1013.3 9.8 SW 11.4 0.0 0.0
14:19 19.6 11.6 60 1013.1 9.2 S 11.4 0.0 0.0
14:20 19.5 11.3 59 1013.2 11.4 S 11.4 0.0 0.0
14:21 19.5 11.3 59 1013.3 9.8 S 11.4 0.0 0.0
14:22 19.3 11.4 60 1013.3 7.6 SW 11.4 0.0 0.0
14:23 19.4 11.7 61 1013.2 5.4 SW 11.4 0.0 0.0
14:24 19.4 11.7 61 1013.1 9.8 SW 11.4 0.0 0.0
14:25 19.4 11.9 62 1013.3 10.7 SW 11.4 0.0 0.0
14:26 19.5 11.8 61 1013.2 10.7 SSW 11.4 0.0 0.0
14:27 19.5 11.8 61 1013.3 9.2 WSW 11.4 0.0 0.0
14:28 19.5 11.8 61 1013.4 10.7 W 11.4 0.0 0.0
14:29 19.5 11.8 61 1013.2 10.7 SW 11.4 0.0 0.0
15:02 18.5 10.8 61 1013.1 10.7 SW 11.4 0.0 0.0
15:03 18.5 10.8 61 1013.1 10.7 SW 11.4 0.0 0.0
15:06 18.7 11.3 62 1012.9 11.4 S 11.4 0.0 0.0
15:07 18.7 11.3 62 1013.0 5.4 SW 11.4 0.0 0.0
15:08 18.7 11.3 62 1013.0 9.2 SW 11.4 0.0 0.0
15:09 18.6 10.9 61 1012.9 9.2 SW 11.4 0.0 0.0
15:10 18.6 10.9 61 1012.9 9.2 SW 11.4 0.0 0.0
15:11 18.5 11.1 62 1013.0 8.3 SW 11.4 0.0 0.0
15:12 18.5 11.1 62 1013.0 9.2 WSW 11.4 0.0 0.0
15:13 18.4 11.0 62 1012.9 8.3 SW 11.4 0.0 0.0
15:14 18.4 11.0 62 1013.0 8.3 SW 11.4 0.0 0.0
15:15 18.5 11.3 63 1013.1 8.3 SE 11.4 0.0 0.0
15:40 18.6 11.7 64 1013.0 11.4 SSW 11.4 0.0 0.0
15:41 18.6 11.7 64 1013.0 10.7 SW 11.4 0.0 0.0
15:42 18.6 11.4 63 1013.0 9.8 SW 11.4 0.0 0.0
15:43 18.6 11.4 63 1013.0 9.8 SW 11.4 0.0 0.0
15:44 18.7 11.5 63 1013.0 9.8 S 11.4 0.0 0.0
15:45 18.7 11.5 63 1013.0 10.7 S 11.4 0.0 0.0
15:46 18.7 11.5 63 1012.9 9.2 W 11.4 0.0 0.0
15:47 18.8 11.6 63 1013.0 9.2 W 11.4 0.0 0.0
15:48 19.0 12.3 65 1012.7 7.6 SW 11.4 0.0 0.0
15:49 19.0 12.0 64 1013.0 8.3 SW 11.4 0.0 0.0
16:23 19.3 11.8 62 1012.5 11.4 SW 11.4 0.0 0.0
16:24 19.2 11.5 61 1012.3 9.8 SW 11.4 0.0 0.0
16:25 19.2 11.5 61 1012.7 9.8 SW 11.4 0.0 0.0
16:26 19.1 11.4 61 1012.4 9.2 S 11.4 0.0 0.0
16:27 19.1 11.4 61 1012.5 8.3 W 11.4 0.0 0.0
16:28 19.0 11.1 60 1012.4 7.6 SW 11.4 0.0 0.0
16:29 19.0 11.1 60 1012.3 6.9 SW 11.4 0.0 0.0
16:30 19.0 11.3 61 1012.3 7.6 SW 11.4 0.0 0.0
16:31 18.9 11.2 61 1012.5 8.3 S 11.4 0.0 0.0
16:32 18.9 11.2 61 1012.4 9.2 SW 11.4 0.0 0.0
12:56 19.4 11.4 60 1013.8 12.1 SE 12.1 0.0 0.0
12:57 19.4 11.4 60 1013.8 10.7 SW 12.1 0.0 0.0
12:58 19.4 11.4 60 1013.5 8.3 SW 12.1 0.0 0.0
12:59 19.4 11.4 60 1013.5 8.3 SW 12.1 0.0 0.0
13:00 19.4 11.4 60 1013.7 9.2 S 12.1 0.0 0.0
13:01 19.4 11.4 60 1013.9 9.2 S 12.1 0.0 0.0
13:02 19.4 11.4 60 1013.9 9.2 S 12.1 0.0 0.0
13:03 19.4 11.7 61 1013.8 9.2 S 12.1 0.0 0.0
13:04 19.4 11.2 59 1013.8 9.2 S 12.1 0.0 0.0
13:05 19.4 11.2 59 1013.6 8.3 S 12.1 0.0 0.0
13:06 19.4 11.2 59 1013.3 9.2 S 12.1 0.0 0.0
14:30 19.6 12.1 62 1013.5 12.1 SE 12.1 0.0 0.0
14:31 19.6 11.9 61 1013.1 12.1 W 12.1 0.0 0.0
14:32 19.6 11.9 61 1013.2 12.1 S 12.1 0.0 0.0
14:33 19.6 11.6 60 1013.1 12.1 S 12.1 0.0 0.0
14:34 19.4 11.4 60 1013.3 6.0 SW 12.1 0.0 0.0
14:35 19.4 11.4 60 1013.3 9.8 S 12.1 0.0 0.0
14:36 19.3 11.4 60 1013.2 10.7 S 12.1 0.0 0.0
14:37 19.2 11.3 60 1013.3 6.9 SW 12.1 0.0 0.0
14:38 19.0 11.1 60 1013.3 7.6 S 12.1 0.0 0.0
14:39 19.0 11.3 61 1013.2 9.8 S 12.1 0.0 0.0
14:40 18.9 11.2 61 1013.3 9.8 SW 12.1 0.0 0.0
14:52 18.3 10.7 61 1013.2 9.2 SW 12.1 0.0 0.0
14:53 18.2 10.6 61 1013.1 11.4 W 12.1 0.0 0.0
14:54 18.2 10.6 61 1013.0 8.3 SW 12.1 0.0 0.0
14:55 18.2 10.8 62 1013.2 8.3 SW 12.1 0.0 0.0
14:56 18.3 10.9 62 1013.2 8.3 NW 12.1 0.0 0.0
14:57 18.4 11.0 62 1013.2 8.3 W 12.1 0.0 0.0
14:58 18.5 11.3 63 1013.2 10.7 SW 12.1 0.0 0.0
14:59 18.5 10.8 61 1012.8 10.7 SW 12.1 0.0 0.0
15:00 18.5 10.8 61 1013.1 10.7 SW 12.1 0.0 0.0
15:01 18.5 10.8 61 1013.0 10.7 SW 12.1 0.0 0.0
13:17 19.3 11.1 59 1013.5 13.0 S 13.0 0.0 0.0
13:18 19.3 11.1 59 1013.4 9.8 SW 13.0 0.0 0.0
13:19 19.3 11.1 59 1013.4 9.8 SW 13.0 0.0 0.0
13:20 19.3 11.1 59 1013.5 8.3 SSW 13.0 0.0 0.0
13:21 19.2 11.0 59 1013.4 8.3 S 13.0 0.0 0.0
13:22 19.2 11.0 59 1013.1 9.8 SW 13.0 0.0 0.0
13:23 19.2 11.0 59 1013.3 7.6 SW 13.0 0.0 0.0
13:24 19.3 11.1 59 1013.4 7.6 SSW 13.0 0.0 0.0
13:25 19.3 11.1 59 1013.4 13.0 SW 13.0 0.0 0.0
13:26 19.3 11.1 59 1013.6 13.0 SW 13.0 0.0 0.0
13:27 19.3 11.1 59 1013.4 8.3 SE 13.0 0.0 0.0
13:28 19.3 11.1 59 1013.5 11.4 SW 13.0 0.0 0.0
13:29 19.3 11.4 60 1013.6 9.2 S 13.0 0.0 0.0
13:30 19.4 11.4 60 1013.3 8.3 S 13.0 0.0 0.0
13:31 19.4 11.4 60 1013.4 8.3 SW 13.0 0.0 0.0
13:32 19.5 11.8 61 1013.4 9.2 S 13.0 0.0 0.0
13:33 19.5 11.8 61 1013.4 6.9 W 13.0 0.0 0.0
13:34 19.7 12.0 61 1013.4 10.7 SW 13.0 0.0 0.0
13:35 19.7 12.0 61 1013.4 10.7 SW 13.0 0.0 0.0
13:36 19.7 11.7 60 1013.4 9.8 SW 13.0 0.0 0.0
13:47 19.7 11.5 59 1013.6 13.6 S 13.6 0.0 0.0
13:48 19.6 11.4 59 1013.5 10.7 S 13.6 0.0 0.0
13:49 19.6 11.4 59 1013.3 10.7 S 13.6 0.0 0.0
13:50 19.6 11.6 60 1013.5 9.2 SW 13.6 0.0 0.0
13:51 19.6 11.6 60 1013.5 9.2 SW 13.6 0.0 0.0
13:52 19.6 11.6 60 1013.5 10.7 S 13.6 0.0 0.0
13:53 19.6 11.4 59 1013.2 10.7 S 13.6 0.0 0.0
13:54 19.6 11.4 59 1013.4 9.2 SW 13.6 0.0 0.0
13:55 19.5 11.3 59 1013.5 8.3 SW 13.6 0.0 0.0
13:56 19.5 11.5 60 1013.5 11.4 SW 13.6 0.0 0.0
13:57 19.5 11.5 60 1013.6 11.4 SW 13.6 0.0 0.0
14:41 18.9 11.2 61 1013.2 13.6 SSW 13.6 0.0 0.0
14:42 18.8 11.1 61 1013.2 9.2 S 13.6 0.0 0.0
14:43 18.7 11.0 61 1013.2 9.2 SW 13.6 0.0 0.0
14:44 18.6 10.7 60 1013.3 9.2 W 13.6 0.0 0.0
14:45 18.6 10.7 60 1013.1 8.3 SW 13.6 0.0 0.0
14:46 18.5 10.8 61 1013.1 9.2 W 13.6 0.0 0.0
14:47 18.5 10.8 61 1013.1 7.6 SW 13.6 0.0 0.0
14:48 18.4 10.8 61 1013.1 9.2 S 13.6 0.0 0.0
14:49 18.4 10.8 61 1013.0 7.6 S 13.6 0.0 0.0
14:50 18.4 10.8 61 1013.0 7.6 SW 13.6 0.0 0.0
14:51 18.4 10.8 61 1013.0 9.8 SW 13.6 0.0 0.0

 

 

UK - WEATHER STATION TOPSITES - UK World Weather Websites

Copyright © Carnkie Weather 2009 - 2022.